<?xml version='1.0' encoding='UTF-8'?>
<gpx version="1.1" creator="https://www.komoot.de" xmlns="http://www.topografix.com/GPX/1/1" xmlns:xsi="http://www.w3.org/2001/XMLSchema-instance" xsi:schemaLocation="http://www.topografix.com/GPX/1/1 http://www.topografix.com/GPX/1/1/gpx.xsd">
  <metadata>
    <name>Einmal den Teuto hoch-49km-2026-2-Samstag</name>
    <author>
      <link href="https://www.komoot.de">
        <text>komoot</text>
        <type>text/html</type>
      </link>
    </author>
  </metadata>
  <trk>
    <name>Einmal den Teuto hoch-49km-2026-2-Samstag</name>
    <trkseg>
      <trkpt lat="52.027963" lon="8.916321">
        <ele>104.127491</ele>
        <time>2025-08-16T21:07:50.786Z</time>
      </trkpt>
      <trkpt lat="52.027605" lon="8.916333">
        <ele>104.127491</ele>
        <time>2025-08-16T21:07:58.899Z</time>
      </trkpt>
      <trkpt lat="52.026186" lon="8.916378">
        <ele>103.666119</ele>
        <time>2025-08-16T21:08:29.254Z</time>
      </trkpt>
      <trkpt lat="52.026167" lon="8.916379">
        <ele>103.656130</ele>
        <time>2025-08-16T21:08:29.657Z</time>
      </trkpt>
      <trkpt lat="52.026141" lon="8.916139">
        <ele>103.577340</ele>
        <time>2025-08-16T21:08:32.739Z</time>
      </trkpt>
      <trkpt lat="52.026119" lon="8.915761">
        <ele>103.454579</ele>
        <time>2025-08-16T21:08:37.456Z</time>
      </trkpt>
      <trkpt lat="52.026117" lon="8.915362">
        <ele>103.325570</ele>
        <time>2025-08-16T21:08:42.320Z</time>
      </trkpt>
      <trkpt lat="52.026139" lon="8.914710">
        <ele>103.027915</ele>
        <time>2025-08-16T21:08:49.969Z</time>
      </trkpt>
      <trkpt lat="52.026284" lon="8.913298">
        <ele>101.975362</ele>
        <time>2025-08-16T21:09:06.769Z</time>
      </trkpt>
      <trkpt lat="52.026288" lon="8.913190">
        <ele>101.895810</ele>
        <time>2025-08-16T21:09:08.004Z</time>
      </trkpt>
      <trkpt lat="52.026239" lon="8.912745">
        <ele>101.563420</ele>
        <time>2025-08-16T21:09:13.168Z</time>
      </trkpt>
      <trkpt lat="52.026204" lon="8.912584">
        <ele>101.437872</ele>
        <time>2025-08-16T21:09:15.130Z</time>
      </trkpt>
      <trkpt lat="52.026159" lon="8.912418">
        <ele>101.304497</ele>
        <time>2025-08-16T21:09:17.199Z</time>
      </trkpt>
      <trkpt lat="52.026083" lon="8.912097">
        <ele>101.051607</ele>
        <time>2025-08-16T21:09:21.153Z</time>
      </trkpt>
      <trkpt lat="52.026055" lon="8.911980">
        <ele>100.949435</ele>
        <time>2025-08-16T21:09:22.582Z</time>
      </trkpt>
      <trkpt lat="52.026014" lon="8.911806">
        <ele>100.794105</ele>
        <time>2025-08-16T21:09:24.717Z</time>
      </trkpt>
      <trkpt lat="52.025984" lon="8.911688">
        <ele>100.687667</ele>
        <time>2025-08-16T21:09:26.198Z</time>
      </trkpt>
      <trkpt lat="52.025943" lon="8.911532">
        <ele>100.546249</ele>
        <time>2025-08-16T21:09:28.149Z</time>
      </trkpt>
      <trkpt lat="52.025889" lon="8.911328">
        <ele>100.361112</ele>
        <time>2025-08-16T21:09:30.686Z</time>
      </trkpt>
      <trkpt lat="52.025817" lon="8.911032">
        <ele>100.095765</ele>
        <time>2025-08-16T21:09:34.321Z</time>
      </trkpt>
      <trkpt lat="52.025797" lon="8.910952">
        <ele>100.023777</ele>
        <time>2025-08-16T21:09:35.308Z</time>
      </trkpt>
      <trkpt lat="52.025789" lon="8.910919">
        <ele>99.994208</ele>
        <time>2025-08-16T21:09:35.704Z</time>
      </trkpt>
      <trkpt lat="52.025537" lon="8.909906">
        <ele>99.083296</ele>
        <time>2025-08-16T21:09:48.074Z</time>
      </trkpt>
      <trkpt lat="52.025464" lon="8.909405">
        <ele>98.654076</ele>
        <time>2025-08-16T21:09:54.038Z</time>
      </trkpt>
      <trkpt lat="52.025326" lon="8.908456">
        <ele>98.319086</ele>
        <time>2025-08-16T21:10:05.374Z</time>
      </trkpt>
      <trkpt lat="52.025285" lon="8.908142">
        <ele>98.220895</ele>
        <time>2025-08-16T21:10:09.383Z</time>
      </trkpt>
      <trkpt lat="52.025279" lon="8.908095">
        <ele>98.206212</ele>
        <time>2025-08-16T21:10:09.994Z</time>
      </trkpt>
      <trkpt lat="52.025251" lon="8.907874">
        <ele>98.137190</ele>
        <time>2025-08-16T21:10:12.904Z</time>
      </trkpt>
      <trkpt lat="52.025203" lon="8.907453">
        <ele>98.006215</ele>
        <time>2025-08-16T21:10:18.713Z</time>
      </trkpt>
      <trkpt lat="52.025188" lon="8.907045">
        <ele>97.881186</ele>
        <time>2025-08-16T21:10:24.572Z</time>
      </trkpt>
      <trkpt lat="52.025135" lon="8.907017">
        <ele>97.853480</ele>
        <time>2025-08-16T21:10:26.211Z</time>
      </trkpt>
      <trkpt lat="52.024396" lon="8.906385">
        <ele>97.907031</ele>
        <time>2025-08-16T21:10:46.284Z</time>
      </trkpt>
      <trkpt lat="52.024340" lon="8.906308">
        <ele>97.935406</ele>
        <time>2025-08-16T21:10:48.036Z</time>
      </trkpt>
      <trkpt lat="52.024136" lon="8.906030">
        <ele>98.038387</ele>
        <time>2025-08-16T21:10:54.606Z</time>
      </trkpt>
      <trkpt lat="52.023984" lon="8.905573">
        <ele>98.162036</ele>
        <time>2025-08-16T21:11:02.332Z</time>
      </trkpt>
      <trkpt lat="52.023846" lon="8.904631">
        <ele>98.392518</ele>
        <time>2025-08-16T21:11:16.037Z</time>
      </trkpt>
      <trkpt lat="52.023851" lon="8.904259">
        <ele>98.473027</ele>
        <time>2025-08-16T21:11:21.272Z</time>
      </trkpt>
      <trkpt lat="52.023872" lon="8.904100">
        <ele>98.507995</ele>
        <time>2025-08-16T21:11:23.574Z</time>
      </trkpt>
      <trkpt lat="52.023892" lon="8.904000">
        <ele>98.530606</ele>
        <time>2025-08-16T21:11:25.069Z</time>
      </trkpt>
      <trkpt lat="52.023946" lon="8.903493">
        <ele>98.641248</ele>
        <time>2025-08-16T21:11:32.606Z</time>
      </trkpt>
      <trkpt lat="52.023918" lon="8.901989">
        <ele>98.964802</ele>
        <time>2025-08-16T21:11:55.074Z</time>
      </trkpt>
      <trkpt lat="52.023986" lon="8.901106">
        <ele>99.208011</ele>
        <time>2025-08-16T21:12:07.776Z</time>
      </trkpt>
      <trkpt lat="52.024077" lon="8.899614">
        <ele>99.659070</ele>
        <time>2025-08-16T21:12:28.317Z</time>
      </trkpt>
      <trkpt lat="52.024100" lon="8.899368">
        <ele>99.733927</ele>
        <time>2025-08-16T21:12:31.790Z</time>
      </trkpt>
      <trkpt lat="52.024068" lon="8.899374">
        <ele>99.749676</ele>
        <time>2025-08-16T21:12:32.590Z</time>
      </trkpt>
      <trkpt lat="52.023849" lon="8.899407">
        <ele>99.857208</ele>
        <time>2025-08-16T21:12:38.118Z</time>
      </trkpt>
      <trkpt lat="52.023674" lon="8.899411">
        <ele>100.221314</ele>
        <time>2025-08-16T21:12:43.163Z</time>
      </trkpt>
      <trkpt lat="52.023588" lon="8.899390">
        <ele>100.582410</ele>
        <time>2025-08-16T21:12:45.779Z</time>
      </trkpt>
      <trkpt lat="52.023537" lon="8.899502">
        <ele>100.938400</ele>
        <time>2025-08-16T21:12:48.381Z</time>
      </trkpt>
      <trkpt lat="52.023348" lon="8.899599">
        <ele>101.761365</ele>
        <time>2025-08-16T21:12:54.828Z</time>
      </trkpt>
      <trkpt lat="52.023324" lon="8.899495">
        <ele>102.045157</ele>
        <time>2025-08-16T21:12:57.606Z</time>
      </trkpt>
      <trkpt lat="52.023089" lon="8.899622">
        <ele>103.073457</ele>
        <time>2025-08-16T21:13:08.498Z</time>
      </trkpt>
      <trkpt lat="52.023075" lon="8.899646">
        <ele>103.157951</ele>
        <time>2025-08-16T21:13:09.454Z</time>
      </trkpt>
      <trkpt lat="52.022876" lon="8.899654">
        <ele>103.984486</ele>
        <time>2025-08-16T21:13:19.119Z</time>
      </trkpt>
      <trkpt lat="52.022793" lon="8.899667">
        <ele>104.330714</ele>
        <time>2025-08-16T21:13:23.313Z</time>
      </trkpt>
      <trkpt lat="52.022794" lon="8.899637">
        <ele>104.407477</ele>
        <time>2025-08-16T21:13:24.092Z</time>
      </trkpt>
      <trkpt lat="52.022794" lon="8.899612">
        <ele>104.471353</ele>
        <time>2025-08-16T21:13:24.754Z</time>
      </trkpt>
      <trkpt lat="52.022801" lon="8.899414">
        <ele>104.978083</ele>
        <time>2025-08-16T21:13:30.103Z</time>
      </trkpt>
      <trkpt lat="52.022705" lon="8.899513">
        <ele>105.450176</ele>
        <time>2025-08-16T21:13:35.175Z</time>
      </trkpt>
      <trkpt lat="52.022683" lon="8.899617">
        <ele>105.731163</ele>
        <time>2025-08-16T21:13:38.228Z</time>
      </trkpt>
      <trkpt lat="52.022670" lon="8.899678">
        <ele>105.896103</ele>
        <time>2025-08-16T21:13:40.072Z</time>
      </trkpt>
      <trkpt lat="52.022332" lon="8.899593">
        <ele>107.316242</ele>
        <time>2025-08-16T21:13:56.576Z</time>
      </trkpt>
      <trkpt lat="52.021981" lon="8.899493">
        <ele>108.801829</ele>
        <time>2025-08-16T21:14:13.669Z</time>
      </trkpt>
      <trkpt lat="52.021367" lon="8.899321">
        <ele>111.399684</ele>
        <time>2025-08-16T21:14:40.629Z</time>
      </trkpt>
      <trkpt lat="52.021224" lon="8.899213">
        <ele>112.057176</ele>
        <time>2025-08-16T21:14:46.811Z</time>
      </trkpt>
      <trkpt lat="52.020953" lon="8.898970">
        <ele>113.347725</ele>
        <time>2025-08-16T21:14:57.831Z</time>
      </trkpt>
      <trkpt lat="52.020901" lon="8.898928">
        <ele>113.589846</ele>
        <time>2025-08-16T21:14:59.709Z</time>
      </trkpt>
      <trkpt lat="52.020279" lon="8.898426">
        <ele>114.881013</ele>
        <time>2025-08-16T21:15:19.033Z</time>
      </trkpt>
      <trkpt lat="52.019783" lon="8.898084">
        <ele>114.891636</ele>
        <time>2025-08-16T21:15:30.863Z</time>
      </trkpt>
      <trkpt lat="52.019676" lon="8.898034">
        <ele>114.893831</ele>
        <time>2025-08-16T21:15:33.136Z</time>
      </trkpt>
      <trkpt lat="52.019296" lon="8.897967">
        <ele>114.901367</ele>
        <time>2025-08-16T21:15:40.709Z</time>
      </trkpt>
      <trkpt lat="52.019129" lon="8.897880">
        <ele>114.904824</ele>
        <time>2025-08-16T21:15:44.119Z</time>
      </trkpt>
      <trkpt lat="52.018499" lon="8.897354">
        <ele>114.552870</ele>
        <time>2025-08-16T21:15:57.693Z</time>
      </trkpt>
      <trkpt lat="52.018432" lon="8.897310">
        <ele>114.501833</ele>
        <time>2025-08-16T21:15:59.049Z</time>
      </trkpt>
      <trkpt lat="52.018370" lon="8.897258">
        <ele>114.452557</ele>
        <time>2025-08-16T21:16:00.383Z</time>
      </trkpt>
      <trkpt lat="52.018011" lon="8.896748">
        <ele>114.115781</ele>
        <time>2025-08-16T21:16:09.631Z</time>
      </trkpt>
      <trkpt lat="52.017698" lon="8.896259">
        <ele>113.809127</ele>
        <time>2025-08-16T21:16:18.543Z</time>
      </trkpt>
      <trkpt lat="52.017625" lon="8.896164">
        <ele>113.743074</ele>
        <time>2025-08-16T21:16:20.571Z</time>
      </trkpt>
      <trkpt lat="52.017411" lon="8.895903">
        <ele>113.664461</ele>
        <time>2025-08-16T21:16:26.507Z</time>
      </trkpt>
      <trkpt lat="52.017073" lon="8.895568">
        <ele>113.750181</ele>
        <time>2025-08-16T21:16:35.370Z</time>
      </trkpt>
      <trkpt lat="52.016916" lon="8.895413">
        <ele>113.789957</ele>
        <time>2025-08-16T21:16:39.627Z</time>
      </trkpt>
      <trkpt lat="52.016800" lon="8.895210">
        <ele>113.826868</ele>
        <time>2025-08-16T21:16:43.646Z</time>
      </trkpt>
      <trkpt lat="52.016712" lon="8.894966">
        <ele>113.864552</ele>
        <time>2025-08-16T21:16:47.871Z</time>
      </trkpt>
      <trkpt lat="52.016678" lon="8.894870">
        <ele>113.879311</ele>
        <time>2025-08-16T21:16:49.508Z</time>
      </trkpt>
      <trkpt lat="52.016404" lon="8.894007">
        <ele>114.008706</ele>
        <time>2025-08-16T21:17:03.651Z</time>
      </trkpt>
      <trkpt lat="52.016199" lon="8.893466">
        <ele>114.255688</ele>
        <time>2025-08-16T21:17:12.623Z</time>
      </trkpt>
      <trkpt lat="52.015762" lon="8.892411">
        <ele>114.845947</ele>
        <time>2025-08-16T21:17:31.886Z</time>
      </trkpt>
      <trkpt lat="52.015220" lon="8.891113">
        <ele>115.780428</ele>
        <time>2025-08-16T21:17:57.545Z</time>
      </trkpt>
      <trkpt lat="52.014898" lon="8.890313">
        <ele>116.707400</ele>
        <time>2025-08-16T21:18:14.654Z</time>
      </trkpt>
      <trkpt lat="52.014882" lon="8.890169">
        <ele>116.849301</ele>
        <time>2025-08-16T21:18:17.318Z</time>
      </trkpt>
      <trkpt lat="52.014929" lon="8.889950">
        <ele>117.074218</ele>
        <time>2025-08-16T21:18:21.552Z</time>
      </trkpt>
      <trkpt lat="52.014368" lon="8.889550">
        <ele>118.039529</ele>
        <time>2025-08-16T21:18:39.198Z</time>
      </trkpt>
      <trkpt lat="52.013952" lon="8.889250">
        <ele>118.695270</ele>
        <time>2025-08-16T21:18:52.426Z</time>
      </trkpt>
      <trkpt lat="52.013664" lon="8.889043">
        <ele>119.134865</ele>
        <time>2025-08-16T21:19:01.954Z</time>
      </trkpt>
      <trkpt lat="52.012279" lon="8.888038">
        <ele>121.176553</ele>
        <time>2025-08-16T21:19:42.838Z</time>
      </trkpt>
      <trkpt lat="52.011734" lon="8.887663">
        <ele>121.883187</ele>
        <time>2025-08-16T21:19:58.006Z</time>
      </trkpt>
      <trkpt lat="52.011435" lon="8.887446">
        <ele>122.274166</ele>
        <time>2025-08-16T21:20:06.637Z</time>
      </trkpt>
      <trkpt lat="52.010708" lon="8.886917">
        <ele>123.346519</ele>
        <time>2025-08-16T21:20:29.331Z</time>
      </trkpt>
      <trkpt lat="52.010312" lon="8.886635">
        <ele>124.042379</ele>
        <time>2025-08-16T21:20:42.261Z</time>
      </trkpt>
      <trkpt lat="52.010010" lon="8.886411">
        <ele>124.576677</ele>
        <time>2025-08-16T21:20:52.128Z</time>
      </trkpt>
      <trkpt lat="52.009774" lon="8.886245">
        <ele>124.990567</ele>
        <time>2025-08-16T21:20:59.711Z</time>
      </trkpt>
      <trkpt lat="52.009763" lon="8.886160">
        <ele>125.076611</ele>
        <time>2025-08-16T21:21:01.256Z</time>
      </trkpt>
      <trkpt lat="52.009597" lon="8.885983">
        <ele>125.396173</ele>
        <time>2025-08-16T21:21:06.997Z</time>
      </trkpt>
      <trkpt lat="52.008486" lon="8.885194">
        <ele>126.732064</ele>
        <time>2025-08-16T21:21:39.190Z</time>
      </trkpt>
      <trkpt lat="52.007535" lon="8.884509">
        <ele>127.719740</ele>
        <time>2025-08-16T21:22:05.285Z</time>
      </trkpt>
      <trkpt lat="52.006531" lon="8.883775">
        <ele>128.636605</ele>
        <time>2025-08-16T21:22:33.401Z</time>
      </trkpt>
      <trkpt lat="52.005948" lon="8.883388">
        <ele>129.222236</ele>
        <time>2025-08-16T21:22:49.634Z</time>
      </trkpt>
      <trkpt lat="52.004997" lon="8.882718">
        <ele>130.499469</ele>
        <time>2025-08-16T21:23:17.191Z</time>
      </trkpt>
      <trkpt lat="52.004817" lon="8.882645">
        <ele>130.728064</ele>
        <time>2025-08-16T21:23:22.142Z</time>
      </trkpt>
      <trkpt lat="52.003678" lon="8.881815">
        <ele>132.999299</ele>
        <time>2025-08-16T21:23:58.527Z</time>
      </trkpt>
      <trkpt lat="52.003177" lon="8.881314">
        <ele>134.247004</ele>
        <time>2025-08-16T21:24:17.657Z</time>
      </trkpt>
      <trkpt lat="52.002851" lon="8.880812">
        <ele>135.215108</ele>
        <time>2025-08-16T21:24:32.384Z</time>
      </trkpt>
      <trkpt lat="52.002671" lon="8.880405">
        <ele>135.944046</ele>
        <time>2025-08-16T21:24:42.047Z</time>
      </trkpt>
      <trkpt lat="52.002616" lon="8.880256">
        <ele>136.196751</ele>
        <time>2025-08-16T21:24:45.382Z</time>
      </trkpt>
      <trkpt lat="52.002576" lon="8.880143">
        <ele>136.386352</ele>
        <time>2025-08-16T21:24:47.888Z</time>
      </trkpt>
      <trkpt lat="52.002496" lon="8.880044">
        <ele>136.623977</ele>
        <time>2025-08-16T21:24:51.081Z</time>
      </trkpt>
      <trkpt lat="52.002399" lon="8.879835">
        <ele>137.004696</ele>
        <time>2025-08-16T21:24:56.154Z</time>
      </trkpt>
      <trkpt lat="52.002314" lon="8.879618">
        <ele>137.378815</ele>
        <time>2025-08-16T21:25:01.145Z</time>
      </trkpt>
      <trkpt lat="52.002119" lon="8.879260">
        <ele>138.074121</ele>
        <time>2025-08-16T21:25:10.301Z</time>
      </trkpt>
      <trkpt lat="52.002081" lon="8.879296">
        <ele>138.178061</ele>
        <time>2025-08-16T21:25:11.653Z</time>
      </trkpt>
      <trkpt lat="52.001995" lon="8.879410">
        <ele>138.440332</ele>
        <time>2025-08-16T21:25:15.115Z</time>
      </trkpt>
      <trkpt lat="52.001944" lon="8.879593">
        <ele>138.732527</ele>
        <time>2025-08-16T21:25:18.914Z</time>
      </trkpt>
      <trkpt lat="52.001563" lon="8.881096">
        <ele>141.575527</ele>
        <time>2025-08-16T21:25:50.998Z</time>
      </trkpt>
      <trkpt lat="52.001486" lon="8.881356">
        <ele>142.107885</ele>
        <time>2025-08-16T21:25:57.239Z</time>
      </trkpt>
      <trkpt lat="52.001400" lon="8.881540">
        <ele>142.534148</ele>
        <time>2025-08-16T21:26:02.256Z</time>
      </trkpt>
      <trkpt lat="52.001332" lon="8.881605">
        <ele>142.770622</ele>
        <time>2025-08-16T21:26:05.079Z</time>
      </trkpt>
      <trkpt lat="51.999377" lon="8.882461">
        <ele>149.155305</ele>
        <time>2025-08-16T21:27:18.636Z</time>
      </trkpt>
      <trkpt lat="51.998997" lon="8.882511">
        <ele>150.385322</ele>
        <time>2025-08-16T21:27:31.839Z</time>
      </trkpt>
      <trkpt lat="51.998335" lon="8.882430">
        <ele>150.670908</ele>
        <time>2025-08-16T21:27:51.491Z</time>
      </trkpt>
      <trkpt lat="51.998089" lon="8.882392">
        <ele>150.735318</ele>
        <time>2025-08-16T21:27:57.559Z</time>
      </trkpt>
      <trkpt lat="51.998090" lon="8.882267">
        <ele>150.755380</ele>
        <time>2025-08-16T21:27:59.346Z</time>
      </trkpt>
      <trkpt lat="51.997253" lon="8.882131">
        <ele>150.974636</ele>
        <time>2025-08-16T21:28:15.396Z</time>
      </trkpt>
      <trkpt lat="51.996312" lon="8.881978">
        <ele>150.009681</ele>
        <time>2025-08-16T21:28:31.974Z</time>
      </trkpt>
      <trkpt lat="51.996019" lon="8.881862">
        <ele>149.698890</ele>
        <time>2025-08-16T21:28:37.773Z</time>
      </trkpt>
      <trkpt lat="51.995665" lon="8.881775">
        <ele>149.329924</ele>
        <time>2025-08-16T21:28:45.257Z</time>
      </trkpt>
      <trkpt lat="51.995083" lon="8.881807">
        <ele>149.614706</ele>
        <time>2025-08-16T21:28:59.483Z</time>
      </trkpt>
      <trkpt lat="51.994249" lon="8.881788">
        <ele>150.689615</ele>
        <time>2025-08-16T21:29:22.990Z</time>
      </trkpt>
      <trkpt lat="51.993412" lon="8.881521">
        <ele>151.940792</ele>
        <time>2025-08-16T21:29:48.043Z</time>
      </trkpt>
      <trkpt lat="51.992979" lon="8.881441">
        <ele>152.747604</ele>
        <time>2025-08-16T21:30:00.936Z</time>
      </trkpt>
      <trkpt lat="51.992185" lon="8.881260">
        <ele>154.232001</ele>
        <time>2025-08-16T21:30:25.317Z</time>
      </trkpt>
      <trkpt lat="51.992003" lon="8.881162">
        <ele>154.586988</ele>
        <time>2025-08-16T21:30:31.057Z</time>
      </trkpt>
      <trkpt lat="51.991937" lon="8.881235">
        <ele>154.734827</ele>
        <time>2025-08-16T21:30:33.434Z</time>
      </trkpt>
      <trkpt lat="51.991816" lon="8.881213">
        <ele>154.924097</ele>
        <time>2025-08-16T21:30:37.001Z</time>
      </trkpt>
      <trkpt lat="51.990862" lon="8.880915">
        <ele>156.379304</ele>
        <time>2025-08-16T21:31:04.066Z</time>
      </trkpt>
      <trkpt lat="51.989993" lon="8.880721">
        <ele>157.782759</ele>
        <time>2025-08-16T21:31:28.430Z</time>
      </trkpt>
      <trkpt lat="51.989863" lon="8.880695">
        <ele>158.055961</ele>
        <time>2025-08-16T21:31:32.192Z</time>
      </trkpt>
      <trkpt lat="51.989596" lon="8.880613">
        <ele>158.622742</ele>
        <time>2025-08-16T21:31:40.141Z</time>
      </trkpt>
      <trkpt lat="51.988819" lon="8.880701">
        <ele>160.247346</ele>
        <time>2025-08-16T21:32:04.490Z</time>
      </trkpt>
      <trkpt lat="51.988216" lon="8.880816">
        <ele>161.530705</ele>
        <time>2025-08-16T21:32:24.068Z</time>
      </trkpt>
      <trkpt lat="51.987200" lon="8.881144">
        <ele>163.814860</ele>
        <time>2025-08-16T21:32:56.286Z</time>
      </trkpt>
      <trkpt lat="51.986634" lon="8.881669">
        <ele>165.265067</ele>
        <time>2025-08-16T21:33:15.866Z</time>
      </trkpt>
      <trkpt lat="51.986524" lon="8.881770">
        <ele>165.595494</ele>
        <time>2025-08-16T21:33:19.775Z</time>
      </trkpt>
      <trkpt lat="51.986097" lon="8.882381">
        <ele>167.083676</ele>
        <time>2025-08-16T21:33:37.689Z</time>
      </trkpt>
      <trkpt lat="51.985303" lon="8.883396">
        <ele>169.726019</ele>
        <time>2025-08-16T21:34:11.742Z</time>
      </trkpt>
      <trkpt lat="51.985088" lon="8.883745">
        <ele>170.579835</ele>
        <time>2025-08-16T21:34:22.520Z</time>
      </trkpt>
      <trkpt lat="51.984651" lon="8.884694">
        <ele>172.664980</ele>
        <time>2025-08-16T21:34:47.959Z</time>
      </trkpt>
      <trkpt lat="51.984574" lon="8.884793">
        <ele>172.945611</ele>
        <time>2025-08-16T21:34:51.316Z</time>
      </trkpt>
      <trkpt lat="51.984028" lon="8.886082">
        <ele>175.576776</ele>
        <time>2025-08-16T21:35:22.557Z</time>
      </trkpt>
      <trkpt lat="51.983434" lon="8.887379">
        <ele>177.906580</ele>
        <time>2025-08-16T21:35:52.960Z</time>
      </trkpt>
      <trkpt lat="51.983383" lon="8.887387">
        <ele>178.026499</ele>
        <time>2025-08-16T21:35:54.520Z</time>
      </trkpt>
      <trkpt lat="51.983324" lon="8.887474">
        <ele>178.213033</ele>
        <time>2025-08-16T21:35:56.968Z</time>
      </trkpt>
      <trkpt lat="51.982637" lon="8.888975">
        <ele>181.492917</ele>
        <time>2025-08-16T21:36:35.012Z</time>
      </trkpt>
      <trkpt lat="51.982431" lon="8.889422">
        <ele>182.578525</ele>
        <time>2025-08-16T21:36:47.169Z</time>
      </trkpt>
      <trkpt lat="51.982382" lon="8.889634">
        <ele>183.018843</ele>
        <time>2025-08-16T21:36:52.144Z</time>
      </trkpt>
      <trkpt lat="51.982251" lon="8.889840">
        <ele>183.594628</ele>
        <time>2025-08-16T21:36:58.724Z</time>
      </trkpt>
      <trkpt lat="51.982098" lon="8.889995">
        <ele>184.164007</ele>
        <time>2025-08-16T21:37:05.279Z</time>
      </trkpt>
      <trkpt lat="51.980933" lon="8.891818">
        <ele>189.794480</ele>
        <time>2025-08-16T21:38:05.222Z</time>
      </trkpt>
      <trkpt lat="51.979631" lon="8.893807">
        <ele>194.756467</ele>
        <time>2025-08-16T21:39:07.527Z</time>
      </trkpt>
      <trkpt lat="51.979555" lon="8.893928">
        <ele>195.027228</ele>
        <time>2025-08-16T21:39:10.318Z</time>
      </trkpt>
      <trkpt lat="51.979555" lon="8.893981">
        <ele>195.110266</ele>
        <time>2025-08-16T21:39:11.293Z</time>
      </trkpt>
      <trkpt lat="51.979598" lon="8.894070">
        <ele>195.287486</ele>
        <time>2025-08-16T21:39:13.095Z</time>
      </trkpt>
      <trkpt lat="51.979185" lon="8.894728">
        <ele>195.803878</ele>
        <time>2025-08-16T21:39:28.460Z</time>
      </trkpt>
      <trkpt lat="51.978876" lon="8.895116">
        <ele>195.756361</ele>
        <time>2025-08-16T21:39:36.843Z</time>
      </trkpt>
      <trkpt lat="51.979185" lon="8.894728">
        <ele>195.708844</ele>
        <time>2025-08-16T21:39:45.166Z</time>
      </trkpt>
      <trkpt lat="51.979598" lon="8.894070">
        <ele>195.638458</ele>
        <time>2025-08-16T21:39:56.869Z</time>
      </trkpt>
      <trkpt lat="51.979668" lon="8.894187">
        <ele>195.574062</ele>
        <time>2025-08-16T21:39:58.836Z</time>
      </trkpt>
      <trkpt lat="51.979546" lon="8.894376">
        <ele>195.118649</ele>
        <time>2025-08-16T21:40:02.198Z</time>
      </trkpt>
      <trkpt lat="51.979127" lon="8.895014">
        <ele>193.567262</ele>
        <time>2025-08-16T21:40:12.227Z</time>
      </trkpt>
      <trkpt lat="51.978850" lon="8.895342">
        <ele>192.641341</ele>
        <time>2025-08-16T21:40:17.904Z</time>
      </trkpt>
      <trkpt lat="51.978309" lon="8.895802">
        <ele>190.992029</ele>
        <time>2025-08-16T21:40:27.716Z</time>
      </trkpt>
      <trkpt lat="51.978103" lon="8.895934">
        <ele>190.106731</ele>
        <time>2025-08-16T21:40:31.141Z</time>
      </trkpt>
      <trkpt lat="51.977544" lon="8.896166">
        <ele>187.362236</ele>
        <time>2025-08-16T21:40:39.884Z</time>
      </trkpt>
      <trkpt lat="51.977104" lon="8.896214">
        <ele>185.264578</ele>
        <time>2025-08-16T21:40:46.596Z</time>
      </trkpt>
      <trkpt lat="51.976527" lon="8.896171">
        <ele>182.517084</ele>
        <time>2025-08-16T21:40:55.299Z</time>
      </trkpt>
      <trkpt lat="51.975990" lon="8.896080">
        <ele>180.112381</ele>
        <time>2025-08-16T21:41:03.401Z</time>
      </trkpt>
      <trkpt lat="51.975468" lon="8.896084">
        <ele>177.808480</ele>
        <time>2025-08-16T21:41:11.329Z</time>
      </trkpt>
      <trkpt lat="51.973832" lon="8.895901">
        <ele>172.008563</ele>
        <time>2025-08-16T21:41:37.447Z</time>
      </trkpt>
      <trkpt lat="51.973129" lon="8.895775">
        <ele>170.097894</ele>
        <time>2025-08-16T21:41:49.733Z</time>
      </trkpt>
      <trkpt lat="51.972870" lon="8.895781">
        <ele>169.408860</ele>
        <time>2025-08-16T21:41:54.420Z</time>
      </trkpt>
      <trkpt lat="51.971341" lon="8.895597">
        <ele>167.476989</ele>
        <time>2025-08-16T21:42:23.494Z</time>
      </trkpt>
      <trkpt lat="51.970246" lon="8.895761">
        <ele>165.708912</ele>
        <time>2025-08-16T21:42:44.165Z</time>
      </trkpt>
      <trkpt lat="51.969886" lon="8.895876">
        <ele>165.079859</ele>
        <time>2025-08-16T21:42:50.563Z</time>
      </trkpt>
      <trkpt lat="51.968907" lon="8.896012">
        <ele>163.910485</ele>
        <time>2025-08-16T21:43:07.594Z</time>
      </trkpt>
      <trkpt lat="51.968803" lon="8.896059">
        <ele>163.867119</ele>
        <time>2025-08-16T21:43:09.520Z</time>
      </trkpt>
      <trkpt lat="51.968208" lon="8.895870">
        <ele>163.623575</ele>
        <time>2025-08-16T21:43:21.377Z</time>
      </trkpt>
      <trkpt lat="51.968104" lon="8.895812">
        <ele>163.579401</ele>
        <time>2025-08-16T21:43:23.820Z</time>
      </trkpt>
      <trkpt lat="51.968073" lon="8.896451">
        <ele>163.420767</ele>
        <time>2025-08-16T21:43:33.461Z</time>
      </trkpt>
      <trkpt lat="51.968064" lon="8.896530">
        <ele>163.400885</ele>
        <time>2025-08-16T21:43:34.836Z</time>
      </trkpt>
      <trkpt lat="51.967891" lon="8.898565">
        <ele>166.839241</ele>
        <time>2025-08-16T21:44:15.313Z</time>
      </trkpt>
      <trkpt lat="51.965714" lon="8.898102">
        <ele>175.302440</ele>
        <time>2025-08-16T21:45:46.556Z</time>
      </trkpt>
      <trkpt lat="51.965566" lon="8.898041">
        <ele>175.941898</ele>
        <time>2025-08-16T21:45:52.255Z</time>
      </trkpt>
      <trkpt lat="51.965411" lon="8.897894">
        <ele>176.569090</ele>
        <time>2025-08-16T21:45:58.691Z</time>
      </trkpt>
      <trkpt lat="51.965277" lon="8.897668">
        <ele>176.967744</ele>
        <time>2025-08-16T21:46:05.312Z</time>
      </trkpt>
      <trkpt lat="51.964774" lon="8.896509">
        <ele>178.769623</ele>
        <time>2025-08-16T21:46:32.171Z</time>
      </trkpt>
      <trkpt lat="51.964595" lon="8.896189">
        <ele>179.318969</ele>
        <time>2025-08-16T21:46:39.793Z</time>
      </trkpt>
      <trkpt lat="51.964390" lon="8.896006">
        <ele>179.801607</ele>
        <time>2025-08-16T21:46:46.522Z</time>
      </trkpt>
      <trkpt lat="51.963649" lon="8.895516">
        <ele>180.478381</ele>
        <time>2025-08-16T21:47:10.118Z</time>
      </trkpt>
      <trkpt lat="51.963339" lon="8.895468">
        <ele>180.637213</ele>
        <time>2025-08-16T21:47:19.356Z</time>
      </trkpt>
      <trkpt lat="51.962372" lon="8.895760">
        <ele>180.742591</ele>
        <time>2025-08-16T21:47:41.469Z</time>
      </trkpt>
      <trkpt lat="51.962283" lon="8.895791">
        <ele>180.496906</ele>
        <time>2025-08-16T21:47:43.162Z</time>
      </trkpt>
      <trkpt lat="51.961569" lon="8.896084">
        <ele>178.509138</ele>
        <time>2025-08-16T21:47:56.040Z</time>
      </trkpt>
      <trkpt lat="51.960904" lon="8.896356">
        <ele>176.658147</ele>
        <time>2025-08-16T21:48:07.435Z</time>
      </trkpt>
      <trkpt lat="51.960183" lon="8.896977">
        <ele>174.477892</ele>
        <time>2025-08-16T21:48:21.459Z</time>
      </trkpt>
      <trkpt lat="51.960165" lon="8.896480">
        <ele>173.660580</ele>
        <time>2025-08-16T21:48:26.637Z</time>
      </trkpt>
      <trkpt lat="51.960155" lon="8.895801">
        <ele>172.545576</ele>
        <time>2025-08-16T21:48:33.799Z</time>
      </trkpt>
      <trkpt lat="51.960150" lon="8.895528">
        <ele>172.097205</ele>
        <time>2025-08-16T21:48:36.698Z</time>
      </trkpt>
      <trkpt lat="51.960143" lon="8.894987">
        <ele>171.266180</ele>
        <time>2025-08-16T21:48:42.492Z</time>
      </trkpt>
      <trkpt lat="51.960082" lon="8.893922">
        <ele>169.966395</ele>
        <time>2025-08-16T21:48:54.073Z</time>
      </trkpt>
      <trkpt lat="51.960091" lon="8.893324">
        <ele>169.239477</ele>
        <time>2025-08-16T21:49:00.473Z</time>
      </trkpt>
      <trkpt lat="51.960106" lon="8.893136">
        <ele>169.009109</ele>
        <time>2025-08-16T21:49:02.558Z</time>
      </trkpt>
      <trkpt lat="51.960139" lon="8.892565">
        <ele>168.312175</ele>
        <time>2025-08-16T21:49:08.785Z</time>
      </trkpt>
      <trkpt lat="51.960158" lon="8.892073">
        <ele>167.788344</ele>
        <time>2025-08-16T21:49:14.213Z</time>
      </trkpt>
      <trkpt lat="51.960163" lon="8.891920">
        <ele>167.684888</ele>
        <time>2025-08-16T21:49:15.965Z</time>
      </trkpt>
      <trkpt lat="51.960192" lon="8.891415">
        <ele>167.342419</ele>
        <time>2025-08-16T21:49:21.853Z</time>
      </trkpt>
      <trkpt lat="51.960225" lon="8.890819">
        <ele>166.938360</ele>
        <time>2025-08-16T21:49:28.859Z</time>
      </trkpt>
      <trkpt lat="51.960230" lon="8.890269">
        <ele>166.566942</ele>
        <time>2025-08-16T21:49:35.509Z</time>
      </trkpt>
      <trkpt lat="51.960195" lon="8.889914">
        <ele>166.324187</ele>
        <time>2025-08-16T21:49:39.935Z</time>
      </trkpt>
      <trkpt lat="51.960037" lon="8.889364">
        <ele>165.914435</ele>
        <time>2025-08-16T21:49:47.229Z</time>
      </trkpt>
      <trkpt lat="51.960023" lon="8.889313">
        <ele>165.895613</ele>
        <time>2025-08-16T21:49:47.921Z</time>
      </trkpt>
      <trkpt lat="51.959875" lon="8.888834">
        <ele>165.730313</ele>
        <time>2025-08-16T21:49:54.453Z</time>
      </trkpt>
      <trkpt lat="51.959795" lon="8.888569">
        <ele>165.639281</ele>
        <time>2025-08-16T21:49:58.089Z</time>
      </trkpt>
      <trkpt lat="51.959717" lon="8.888303">
        <ele>165.548407</ele>
        <time>2025-08-16T21:50:01.734Z</time>
      </trkpt>
      <trkpt lat="51.959612" lon="8.887958">
        <ele>165.429705</ele>
        <time>2025-08-16T21:50:06.475Z</time>
      </trkpt>
      <trkpt lat="51.959405" lon="8.887247">
        <ele>165.187122</ele>
        <time>2025-08-16T21:50:16.401Z</time>
      </trkpt>
      <trkpt lat="51.959064" lon="8.887393">
        <ele>165.010944</ele>
        <time>2025-08-16T21:50:24.079Z</time>
      </trkpt>
      <trkpt lat="51.958653" lon="8.887568">
        <ele>164.960320</ele>
        <time>2025-08-16T21:50:34.003Z</time>
      </trkpt>
      <trkpt lat="51.957814" lon="8.887929">
        <ele>164.856906</ele>
        <time>2025-08-16T21:50:54.655Z</time>
      </trkpt>
      <trkpt lat="51.957676" lon="8.887986">
        <ele>164.839940</ele>
        <time>2025-08-16T21:50:57.768Z</time>
      </trkpt>
      <trkpt lat="51.955746" lon="8.888798">
        <ele>162.887329</ele>
        <time>2025-08-16T21:51:35.781Z</time>
      </trkpt>
      <trkpt lat="51.955656" lon="8.888873">
        <ele>162.768915</ele>
        <time>2025-08-16T21:51:37.600Z</time>
      </trkpt>
      <trkpt lat="51.955476" lon="8.888973">
        <ele>162.447506</ele>
        <time>2025-08-16T21:51:40.995Z</time>
      </trkpt>
      <trkpt lat="51.955285" lon="8.889024">
        <ele>162.067133</ele>
        <time>2025-08-16T21:51:44.458Z</time>
      </trkpt>
      <trkpt lat="51.954654" lon="8.889053">
        <ele>160.826688</ele>
        <time>2025-08-16T21:51:55.656Z</time>
      </trkpt>
      <trkpt lat="51.954211" lon="8.889208">
        <ele>159.936162</ele>
        <time>2025-08-16T21:52:03.720Z</time>
      </trkpt>
      <trkpt lat="51.954153" lon="8.889228">
        <ele>159.819644</ele>
        <time>2025-08-16T21:52:04.765Z</time>
      </trkpt>
      <trkpt lat="51.953865" lon="8.889251">
        <ele>159.253024</ele>
        <time>2025-08-16T21:52:09.811Z</time>
      </trkpt>
      <trkpt lat="51.953325" lon="8.889160">
        <ele>157.846877</ele>
        <time>2025-08-16T21:52:18.775Z</time>
      </trkpt>
      <trkpt lat="51.953258" lon="8.889040">
        <ele>157.582257</ele>
        <time>2025-08-16T21:52:20.403Z</time>
      </trkpt>
      <trkpt lat="51.953143" lon="8.889015">
        <ele>157.274587</ele>
        <time>2025-08-16T21:52:22.318Z</time>
      </trkpt>
      <trkpt lat="51.952762" lon="8.889052">
        <ele>156.262481</ele>
        <time>2025-08-16T21:52:28.542Z</time>
      </trkpt>
      <trkpt lat="51.952702" lon="8.889045">
        <ele>156.102968</ele>
        <time>2025-08-16T21:52:29.529Z</time>
      </trkpt>
      <trkpt lat="51.952446" lon="8.888761">
        <ele>155.280631</ele>
        <time>2025-08-16T21:52:34.732Z</time>
      </trkpt>
      <trkpt lat="51.952385" lon="8.888870">
        <ele>155.040012</ele>
        <time>2025-08-16T21:52:36.883Z</time>
      </trkpt>
      <trkpt lat="51.952190" lon="8.889165">
        <ele>154.376765</ele>
        <time>2025-08-16T21:52:43.247Z</time>
      </trkpt>
      <trkpt lat="51.952141" lon="8.889065">
        <ele>154.334791</ele>
        <time>2025-08-16T21:52:44.640Z</time>
      </trkpt>
      <trkpt lat="51.952094" lon="8.888958">
        <ele>154.291621</ele>
        <time>2025-08-16T21:52:46.059Z</time>
      </trkpt>
      <trkpt lat="51.951907" lon="8.889116">
        <ele>154.179226</ele>
        <time>2025-08-16T21:52:51.133Z</time>
      </trkpt>
      <trkpt lat="51.951598" lon="8.889453">
        <ele>153.980746</ele>
        <time>2025-08-16T21:53:00.466Z</time>
      </trkpt>
      <trkpt lat="51.951527" lon="8.889484">
        <ele>153.941550</ele>
        <time>2025-08-16T21:53:02.035Z</time>
      </trkpt>
      <trkpt lat="51.951437" lon="8.889458">
        <ele>153.892818</ele>
        <time>2025-08-16T21:53:03.900Z</time>
      </trkpt>
      <trkpt lat="51.951387" lon="8.889515">
        <ele>153.860241</ele>
        <time>2025-08-16T21:53:05.294Z</time>
      </trkpt>
      <trkpt lat="51.951288" lon="8.889399">
        <ele>153.795142</ele>
        <time>2025-08-16T21:53:07.975Z</time>
      </trkpt>
      <trkpt lat="51.951198" lon="8.889344">
        <ele>153.743874</ele>
        <time>2025-08-16T21:53:10.092Z</time>
      </trkpt>
      <trkpt lat="51.950964" lon="8.889064">
        <ele>153.588875</ele>
        <time>2025-08-16T21:53:17.341Z</time>
      </trkpt>
      <trkpt lat="51.950660" lon="8.888863">
        <ele>153.488350</ele>
        <time>2025-08-16T21:53:25.869Z</time>
      </trkpt>
      <trkpt lat="51.949897" lon="8.888646">
        <ele>155.118906</ele>
        <time>2025-08-16T21:53:50.162Z</time>
      </trkpt>
      <trkpt lat="51.949503" lon="8.888555">
        <ele>155.956613</ele>
        <time>2025-08-16T21:54:04.607Z</time>
      </trkpt>
      <trkpt lat="51.949064" lon="8.888435">
        <ele>156.893705</ele>
        <time>2025-08-16T21:54:19.466Z</time>
      </trkpt>
      <trkpt lat="51.948857" lon="8.888383">
        <ele>157.232929</ele>
        <time>2025-08-16T21:54:25.942Z</time>
      </trkpt>
      <trkpt lat="51.948730" lon="8.888351">
        <ele>157.273555</ele>
        <time>2025-08-16T21:54:29.755Z</time>
      </trkpt>
      <trkpt lat="51.948209" lon="8.888218">
        <ele>157.440271</ele>
        <time>2025-08-16T21:54:44.420Z</time>
      </trkpt>
      <trkpt lat="51.948074" lon="8.888182">
        <ele>157.483518</ele>
        <time>2025-08-16T21:54:47.777Z</time>
      </trkpt>
      <trkpt lat="51.947722" lon="8.888106">
        <ele>157.595767</ele>
        <time>2025-08-16T21:54:55.107Z</time>
      </trkpt>
      <trkpt lat="51.947689" lon="8.888060">
        <ele>157.609520</ele>
        <time>2025-08-16T21:54:55.952Z</time>
      </trkpt>
      <trkpt lat="51.947564" lon="8.888017">
        <ele>157.649911</ele>
        <time>2025-08-16T21:54:58.388Z</time>
      </trkpt>
      <trkpt lat="51.947513" lon="8.887883">
        <ele>157.680596</ele>
        <time>2025-08-16T21:55:00.263Z</time>
      </trkpt>
      <trkpt lat="51.947553" lon="8.887670">
        <ele>157.723981</ele>
        <time>2025-08-16T21:55:02.932Z</time>
      </trkpt>
      <trkpt lat="51.947549" lon="8.887572">
        <ele>157.743117</ele>
        <time>2025-08-16T21:55:04.126Z</time>
      </trkpt>
      <trkpt lat="51.947599" lon="8.887357">
        <ele>157.772265</ele>
        <time>2025-08-16T21:55:06.935Z</time>
      </trkpt>
      <trkpt lat="51.947702" lon="8.886938">
        <ele>157.546172</ele>
        <time>2025-08-16T21:55:12.565Z</time>
      </trkpt>
      <trkpt lat="51.947762" lon="8.886706">
        <ele>157.420070</ele>
        <time>2025-08-16T21:55:15.729Z</time>
      </trkpt>
      <trkpt lat="51.947801" lon="8.886551">
        <ele>157.336158</ele>
        <time>2025-08-16T21:55:17.847Z</time>
      </trkpt>
      <trkpt lat="51.947746" lon="8.886533">
        <ele>157.290534</ele>
        <time>2025-08-16T21:55:19.834Z</time>
      </trkpt>
      <trkpt lat="51.947548" lon="8.886472">
        <ele>157.126652</ele>
        <time>2025-08-16T21:55:26.950Z</time>
      </trkpt>
      <trkpt lat="51.947307" lon="8.886397">
        <ele>156.927109</ele>
        <time>2025-08-16T21:55:35.514Z</time>
      </trkpt>
      <trkpt lat="51.946767" lon="8.886221">
        <ele>156.479232</ele>
        <time>2025-08-16T21:55:46.374Z</time>
      </trkpt>
      <trkpt lat="51.946713" lon="8.886148">
        <ele>156.422076</ele>
        <time>2025-08-16T21:55:47.742Z</time>
      </trkpt>
      <trkpt lat="51.946479" lon="8.886071">
        <ele>156.125082</ele>
        <time>2025-08-16T21:55:52.291Z</time>
      </trkpt>
      <trkpt lat="51.946330" lon="8.886022">
        <ele>155.864779</ele>
        <time>2025-08-16T21:55:55.104Z</time>
      </trkpt>
      <trkpt lat="51.945992" lon="8.885912">
        <ele>155.274535</ele>
        <time>2025-08-16T21:56:01.311Z</time>
      </trkpt>
      <trkpt lat="51.945861" lon="8.885873">
        <ele>155.046495</ele>
        <time>2025-08-16T21:56:03.679Z</time>
      </trkpt>
      <trkpt lat="51.945711" lon="8.885824">
        <ele>154.784514</ele>
        <time>2025-08-16T21:56:06.392Z</time>
      </trkpt>
      <trkpt lat="51.945098" lon="8.885625">
        <ele>153.714143</ele>
        <time>2025-08-16T21:56:17.343Z</time>
      </trkpt>
      <trkpt lat="51.944509" lon="8.885365">
        <ele>153.009207</ele>
        <time>2025-08-16T21:56:28.129Z</time>
      </trkpt>
      <trkpt lat="51.944325" lon="8.885236">
        <ele>152.870004</ele>
        <time>2025-08-16T21:56:31.803Z</time>
      </trkpt>
      <trkpt lat="51.944216" lon="8.885161">
        <ele>152.787781</ele>
        <time>2025-08-16T21:56:34.078Z</time>
      </trkpt>
      <trkpt lat="51.944188" lon="8.885137">
        <ele>152.765788</ele>
        <time>2025-08-16T21:56:34.682Z</time>
      </trkpt>
      <trkpt lat="51.944060" lon="8.885013">
        <ele>152.662254</ele>
        <time>2025-08-16T21:56:37.664Z</time>
      </trkpt>
      <trkpt lat="51.943643" lon="8.884656">
        <ele>152.334811</ele>
        <time>2025-08-16T21:56:47.784Z</time>
      </trkpt>
      <trkpt lat="51.942422" lon="8.883930">
        <ele>151.349866</ele>
        <time>2025-08-16T21:57:17.815Z</time>
      </trkpt>
      <trkpt lat="51.942320" lon="8.883870">
        <ele>151.263516</ele>
        <time>2025-08-16T21:57:20.906Z</time>
      </trkpt>
      <trkpt lat="51.942228" lon="8.883810">
        <ele>151.184601</ele>
        <time>2025-08-16T21:57:23.674Z</time>
      </trkpt>
      <trkpt lat="51.940819" lon="8.882971">
        <ele>147.717486</ele>
        <time>2025-08-16T21:57:50.266Z</time>
      </trkpt>
      <trkpt lat="51.940624" lon="8.882691">
        <ele>146.684934</ele>
        <time>2025-08-16T21:57:54.336Z</time>
      </trkpt>
      <trkpt lat="51.940287" lon="8.882240">
        <ele>144.952719</ele>
        <time>2025-08-16T21:58:00.882Z</time>
      </trkpt>
      <trkpt lat="51.940028" lon="8.881851">
        <ele>143.553212</ele>
        <time>2025-08-16T21:58:06.022Z</time>
      </trkpt>
      <trkpt lat="51.939836" lon="8.881588">
        <ele>142.446863</ele>
        <time>2025-08-16T21:58:09.661Z</time>
      </trkpt>
      <trkpt lat="51.939351" lon="8.880869">
        <ele>139.513443</ele>
        <time>2025-08-16T21:58:19.345Z</time>
      </trkpt>
      <trkpt lat="51.939307" lon="8.880803">
        <ele>139.245881</ele>
        <time>2025-08-16T21:58:20.252Z</time>
      </trkpt>
      <trkpt lat="51.939450" lon="8.880483">
        <ele>138.158060</ele>
        <time>2025-08-16T21:58:24.169Z</time>
      </trkpt>
      <trkpt lat="51.939573" lon="8.880031">
        <ele>136.798171</ele>
        <time>2025-08-16T21:58:29.244Z</time>
      </trkpt>
      <trkpt lat="51.939626" lon="8.879709">
        <ele>135.880858</ele>
        <time>2025-08-16T21:58:32.853Z</time>
      </trkpt>
      <trkpt lat="51.939660" lon="8.879478">
        <ele>135.403535</ele>
        <time>2025-08-16T21:58:35.409Z</time>
      </trkpt>
      <trkpt lat="51.939695" lon="8.879274">
        <ele>135.418371</ele>
        <time>2025-08-16T21:58:37.779Z</time>
      </trkpt>
      <trkpt lat="51.939730" lon="8.879081">
        <ele>135.432466</ele>
        <time>2025-08-16T21:58:40.154Z</time>
      </trkpt>
      <trkpt lat="51.939241" lon="8.878919">
        <ele>135.489187</ele>
        <time>2025-08-16T21:58:51.635Z</time>
      </trkpt>
      <trkpt lat="51.938684" lon="8.878739">
        <ele>135.553733</ele>
        <time>2025-08-16T21:59:06.511Z</time>
      </trkpt>
      <trkpt lat="51.938212" lon="8.878584">
        <ele>135.638998</ele>
        <time>2025-08-16T21:59:18.863Z</time>
      </trkpt>
      <trkpt lat="51.938053" lon="8.878532">
        <ele>135.772452</ele>
        <time>2025-08-16T21:59:23.321Z</time>
      </trkpt>
      <trkpt lat="51.937599" lon="8.878384">
        <ele>136.153461</ele>
        <time>2025-08-16T21:59:36.755Z</time>
      </trkpt>
      <trkpt lat="51.937520" lon="8.878357">
        <ele>136.219887</ele>
        <time>2025-08-16T21:59:39.187Z</time>
      </trkpt>
      <trkpt lat="51.937452" lon="8.878559">
        <ele>136.336633</ele>
        <time>2025-08-16T21:59:43.185Z</time>
      </trkpt>
      <trkpt lat="51.937402" lon="8.878498">
        <ele>136.388109</ele>
        <time>2025-08-16T21:59:45.337Z</time>
      </trkpt>
      <trkpt lat="51.937355" lon="8.878438">
        <ele>136.437320</ele>
        <time>2025-08-16T21:59:47.375Z</time>
      </trkpt>
      <trkpt lat="51.937078" lon="8.877265">
        <ele>137.074491</ele>
        <time>2025-08-16T22:00:09.872Z</time>
      </trkpt>
      <trkpt lat="51.937050" lon="8.877155">
        <ele>137.095678</ele>
        <time>2025-08-16T22:00:11.946Z</time>
      </trkpt>
      <trkpt lat="51.937021" lon="8.877040">
        <ele>137.110672</ele>
        <time>2025-08-16T22:00:14.295Z</time>
      </trkpt>
      <trkpt lat="51.936955" lon="8.876774">
        <ele>137.145275</ele>
        <time>2025-08-16T22:00:20.033Z</time>
      </trkpt>
      <trkpt lat="51.936884" lon="8.876489">
        <ele>137.182371</ele>
        <time>2025-08-16T22:00:25.937Z</time>
      </trkpt>
      <trkpt lat="51.936861" lon="8.876399">
        <ele>137.194128</ele>
        <time>2025-08-16T22:00:27.848Z</time>
      </trkpt>
      <trkpt lat="51.936817" lon="8.876228">
        <ele>137.216489</ele>
        <time>2025-08-16T22:00:31.303Z</time>
      </trkpt>
      <trkpt lat="51.936746" lon="8.876004">
        <ele>137.246885</ele>
        <time>2025-08-16T22:00:35.880Z</time>
      </trkpt>
      <trkpt lat="51.936613" lon="8.875904">
        <ele>137.275580</ele>
        <time>2025-08-16T22:00:40.099Z</time>
      </trkpt>
      <trkpt lat="51.936539" lon="8.875848">
        <ele>137.291563</ele>
        <time>2025-08-16T22:00:42.540Z</time>
      </trkpt>
      <trkpt lat="51.936231" lon="8.875741">
        <ele>137.353219</ele>
        <time>2025-08-16T22:00:51.404Z</time>
      </trkpt>
      <trkpt lat="51.935952" lon="8.875703">
        <ele>137.408023</ele>
        <time>2025-08-16T22:00:59.785Z</time>
      </trkpt>
      <trkpt lat="51.935855" lon="8.875632">
        <ele>137.428854</ele>
        <time>2025-08-16T22:01:03.138Z</time>
      </trkpt>
      <trkpt lat="51.935888" lon="8.875506">
        <ele>137.461282</ele>
        <time>2025-08-16T22:01:05.934Z</time>
      </trkpt>
      <trkpt lat="51.935907" lon="8.875417">
        <ele>137.490985</ele>
        <time>2025-08-16T22:01:07.796Z</time>
      </trkpt>
      <trkpt lat="51.935063" lon="8.875282">
        <ele>137.924810</ele>
        <time>2025-08-16T22:01:34.324Z</time>
      </trkpt>
      <trkpt lat="51.934947" lon="8.875285">
        <ele>137.984155</ele>
        <time>2025-08-16T22:01:37.984Z</time>
      </trkpt>
      <trkpt lat="51.934734" lon="8.875323">
        <ele>138.093767</ele>
        <time>2025-08-16T22:01:44.766Z</time>
      </trkpt>
      <trkpt lat="51.934412" lon="8.875402">
        <ele>138.260353</ele>
        <time>2025-08-16T22:01:55.126Z</time>
      </trkpt>
      <trkpt lat="51.934201" lon="8.875525">
        <ele>138.367676</ele>
        <time>2025-08-16T22:02:02.065Z</time>
      </trkpt>
      <trkpt lat="51.934002" lon="8.875718">
        <ele>138.441394</ele>
        <time>2025-08-16T22:02:09.275Z</time>
      </trkpt>
      <trkpt lat="51.933836" lon="8.875956">
        <ele>138.511837</ele>
        <time>2025-08-16T22:02:16.150Z</time>
      </trkpt>
      <trkpt lat="51.933586" lon="8.876425">
        <ele>138.633371</ele>
        <time>2025-08-16T22:02:28.259Z</time>
      </trkpt>
      <trkpt lat="51.933559" lon="8.876487">
        <ele>138.648251</ele>
        <time>2025-08-16T22:02:29.732Z</time>
      </trkpt>
      <trkpt lat="51.933570" lon="8.876595">
        <ele>138.669709</ele>
        <time>2025-08-16T22:02:31.825Z</time>
      </trkpt>
      <trkpt lat="51.933561" lon="8.876615">
        <ele>138.674563</ele>
        <time>2025-08-16T22:02:32.325Z</time>
      </trkpt>
      <trkpt lat="51.933555" lon="8.876630">
        <ele>138.678068</ele>
        <time>2025-08-16T22:02:32.660Z</time>
      </trkpt>
      <trkpt lat="51.933550" lon="8.876641">
        <ele>138.680747</ele>
        <time>2025-08-16T22:02:32.937Z</time>
      </trkpt>
      <trkpt lat="51.933270" lon="8.877192">
        <ele>138.820718</ele>
        <time>2025-08-16T22:02:46.148Z</time>
      </trkpt>
      <trkpt lat="51.933185" lon="8.877312">
        <ele>138.856547</ele>
        <time>2025-08-16T22:02:49.390Z</time>
      </trkpt>
      <trkpt lat="51.933106" lon="8.877352">
        <ele>138.882860</ele>
        <time>2025-08-16T22:02:51.806Z</time>
      </trkpt>
      <trkpt lat="51.933048" lon="8.877310">
        <ele>138.903055</ele>
        <time>2025-08-16T22:02:53.324Z</time>
      </trkpt>
      <trkpt lat="51.932979" lon="8.877260">
        <ele>138.927083</ele>
        <time>2025-08-16T22:02:55.185Z</time>
      </trkpt>
      <trkpt lat="51.932784" lon="8.877094">
        <ele>139.011640</ele>
        <time>2025-08-16T22:03:00.571Z</time>
      </trkpt>
      <trkpt lat="51.932139" lon="8.876511">
        <ele>139.295393</ele>
        <time>2025-08-16T22:03:19.270Z</time>
      </trkpt>
      <trkpt lat="51.931159" lon="8.875637">
        <ele>140.052470</ele>
        <time>2025-08-16T22:03:49.463Z</time>
      </trkpt>
      <trkpt lat="51.931090" lon="8.875576">
        <ele>140.175421</ele>
        <time>2025-08-16T22:03:51.759Z</time>
      </trkpt>
      <trkpt lat="51.930406" lon="8.874975">
        <ele>141.392542</ele>
        <time>2025-08-16T22:04:16.096Z</time>
      </trkpt>
      <trkpt lat="51.930119" lon="8.874371">
        <ele>142.128177</ele>
        <time>2025-08-16T22:04:31.822Z</time>
      </trkpt>
      <trkpt lat="51.930100" lon="8.874276">
        <ele>142.224527</ele>
        <time>2025-08-16T22:04:33.864Z</time>
      </trkpt>
      <trkpt lat="51.930063" lon="8.874196">
        <ele>142.321003</ele>
        <time>2025-08-16T22:04:35.927Z</time>
      </trkpt>
      <trkpt lat="51.929949" lon="8.873954">
        <ele>142.588180</ele>
        <time>2025-08-16T22:04:42.180Z</time>
      </trkpt>
      <trkpt lat="51.929858" lon="8.873752">
        <ele>142.794249</ele>
        <time>2025-08-16T22:04:47.317Z</time>
      </trkpt>
      <trkpt lat="51.929755" lon="8.873553">
        <ele>143.008265</ele>
        <time>2025-08-16T22:04:52.595Z</time>
      </trkpt>
      <trkpt lat="51.929074" lon="8.872704">
        <ele>144.155736</ele>
        <time>2025-08-16T22:05:17.478Z</time>
      </trkpt>
      <trkpt lat="51.929025" lon="8.872647">
        <ele>144.236292</ele>
        <time>2025-08-16T22:05:19.503Z</time>
      </trkpt>
      <trkpt lat="51.926979" lon="8.870185">
        <ele>146.064283</ele>
        <time>2025-08-16T22:06:38.576Z</time>
      </trkpt>
      <trkpt lat="51.927012" lon="8.870113">
        <ele>146.116713</ele>
        <time>2025-08-16T22:06:40.488Z</time>
      </trkpt>
      <trkpt lat="51.927213" lon="8.869685">
        <ele>146.431129</ele>
        <time>2025-08-16T22:06:49.799Z</time>
      </trkpt>
      <trkpt lat="51.927242" lon="8.869587">
        <ele>146.494656</ele>
        <time>2025-08-16T22:06:51.688Z</time>
      </trkpt>
      <trkpt lat="51.927247" lon="8.869420">
        <ele>146.592372</ele>
        <time>2025-08-16T22:06:54.451Z</time>
      </trkpt>
      <trkpt lat="51.927050" lon="8.868766">
        <ele>147.017755</ele>
        <time>2025-08-16T22:07:06.060Z</time>
      </trkpt>
      <trkpt lat="51.927006" lon="8.868608">
        <ele>147.119075</ele>
        <time>2025-08-16T22:07:08.927Z</time>
      </trkpt>
      <trkpt lat="51.926797" lon="8.868166">
        <ele>147.444597</ele>
        <time>2025-08-16T22:07:18.222Z</time>
      </trkpt>
      <trkpt lat="51.926653" lon="8.867959">
        <ele>147.645760</ele>
        <time>2025-08-16T22:07:23.160Z</time>
      </trkpt>
      <trkpt lat="51.926412" lon="8.867865">
        <ele>147.911549</ele>
        <time>2025-08-16T22:07:28.959Z</time>
      </trkpt>
      <trkpt lat="51.925430" lon="8.866710">
        <ele>149.212345</ele>
        <time>2025-08-16T22:08:01.259Z</time>
      </trkpt>
      <trkpt lat="51.925233" lon="8.866566">
        <ele>149.410677</ele>
        <time>2025-08-16T22:08:07.665Z</time>
      </trkpt>
      <trkpt lat="51.924595" lon="8.865942">
        <ele>149.360192</ele>
        <time>2025-08-16T22:08:27.811Z</time>
      </trkpt>
      <trkpt lat="51.924058" lon="8.865272">
        <ele>149.314281</ele>
        <time>2025-08-16T22:08:41.584Z</time>
      </trkpt>
      <trkpt lat="51.923751" lon="8.864962">
        <ele>149.280583</ele>
        <time>2025-08-16T22:08:48.096Z</time>
      </trkpt>
      <trkpt lat="51.923648" lon="8.864562">
        <ele>149.097879</ele>
        <time>2025-08-16T22:08:52.808Z</time>
      </trkpt>
      <trkpt lat="51.923522" lon="8.864189">
        <ele>148.918621</ele>
        <time>2025-08-16T22:08:57.507Z</time>
      </trkpt>
      <trkpt lat="51.923510" lon="8.864149">
        <ele>148.899872</ele>
        <time>2025-08-16T22:08:58.005Z</time>
      </trkpt>
      <trkpt lat="51.923421" lon="8.863846">
        <ele>148.758412</ele>
        <time>2025-08-16T22:09:01.808Z</time>
      </trkpt>
      <trkpt lat="51.923221" lon="8.863763">
        <ele>148.617315</ele>
        <time>2025-08-16T22:09:05.762Z</time>
      </trkpt>
      <trkpt lat="51.923186" lon="8.863732">
        <ele>148.590058</ele>
        <time>2025-08-16T22:09:06.550Z</time>
      </trkpt>
      <trkpt lat="51.923025" lon="8.863240">
        <ele>148.355294</ele>
        <time>2025-08-16T22:09:13.627Z</time>
      </trkpt>
      <trkpt lat="51.922869" lon="8.862717">
        <ele>148.110419</ele>
        <time>2025-08-16T22:09:22.058Z</time>
      </trkpt>
      <trkpt lat="51.922821" lon="8.862652">
        <ele>148.067677</ele>
        <time>2025-08-16T22:09:23.628Z</time>
      </trkpt>
      <trkpt lat="51.922753" lon="8.862457">
        <ele>148.256210</ele>
        <time>2025-08-16T22:09:27.253Z</time>
      </trkpt>
      <trkpt lat="51.922667" lon="8.862252">
        <ele>148.486831</ele>
        <time>2025-08-16T22:09:31.459Z</time>
      </trkpt>
      <trkpt lat="51.922539" lon="8.862093">
        <ele>148.730028</ele>
        <time>2025-08-16T22:09:36.189Z</time>
      </trkpt>
      <trkpt lat="51.921815" lon="8.861417">
        <ele>149.990110</ele>
        <time>2025-08-16T22:10:00.452Z</time>
      </trkpt>
      <trkpt lat="51.921421" lon="8.861085">
        <ele>150.659819</ele>
        <time>2025-08-16T22:10:12.867Z</time>
      </trkpt>
      <trkpt lat="51.921026" lon="8.860919">
        <ele>151.679668</ele>
        <time>2025-08-16T22:10:25.415Z</time>
      </trkpt>
      <trkpt lat="51.920935" lon="8.860898">
        <ele>151.930214</ele>
        <time>2025-08-16T22:10:28.284Z</time>
      </trkpt>
      <trkpt lat="51.920971" lon="8.860440">
        <ele>152.706398</ele>
        <time>2025-08-16T22:10:37.549Z</time>
      </trkpt>
      <trkpt lat="51.920979" lon="8.860321">
        <ele>152.907637</ele>
        <time>2025-08-16T22:10:40.044Z</time>
      </trkpt>
      <trkpt lat="51.920998" lon="8.860059">
        <ele>153.351126</ele>
        <time>2025-08-16T22:10:45.457Z</time>
      </trkpt>
      <trkpt lat="51.921009" lon="8.859919">
        <ele>153.588385</ele>
        <time>2025-08-16T22:10:48.330Z</time>
      </trkpt>
      <trkpt lat="51.921030" lon="8.859639">
        <ele>154.062568</ele>
        <time>2025-08-16T22:10:54.216Z</time>
      </trkpt>
      <trkpt lat="51.921048" lon="8.859393">
        <ele>154.479024</ele>
        <time>2025-08-16T22:10:59.533Z</time>
      </trkpt>
      <trkpt lat="51.921108" lon="8.858579">
        <ele>155.881514</ele>
        <time>2025-08-16T22:11:18.050Z</time>
      </trkpt>
      <trkpt lat="51.921128" lon="8.858303">
        <ele>156.411754</ele>
        <time>2025-08-16T22:11:24.299Z</time>
      </trkpt>
      <trkpt lat="51.921308" lon="8.855963">
        <ele>160.911132</ele>
        <time>2025-08-16T22:12:13.304Z</time>
      </trkpt>
      <trkpt lat="51.921612" lon="8.856060">
        <ele>162.061581</ele>
        <time>2025-08-16T22:12:24.301Z</time>
      </trkpt>
      <trkpt lat="51.921687" lon="8.856094">
        <ele>162.376119</ele>
        <time>2025-08-16T22:12:27.152Z</time>
      </trkpt>
      <trkpt lat="51.921827" lon="8.856120">
        <ele>162.945269</ele>
        <time>2025-08-16T22:12:32.372Z</time>
      </trkpt>
      <trkpt lat="51.921959" lon="8.855309">
        <ele>165.034605</ele>
        <time>2025-08-16T22:12:53.674Z</time>
      </trkpt>
      <trkpt lat="51.922207" lon="8.854579">
        <ele>167.110630</ele>
        <time>2025-08-16T22:13:15.501Z</time>
      </trkpt>
      <trkpt lat="51.922455" lon="8.854019">
        <ele>168.836595</ele>
        <time>2025-08-16T22:13:34.094Z</time>
      </trkpt>
      <trkpt lat="51.922550" lon="8.853910">
        <ele>169.319291</ele>
        <time>2025-08-16T22:13:38.983Z</time>
      </trkpt>
      <trkpt lat="51.922621" lon="8.853898">
        <ele>169.615368</ele>
        <time>2025-08-16T22:13:41.943Z</time>
      </trkpt>
      <trkpt lat="51.922695" lon="8.853934">
        <ele>169.935810</ele>
        <time>2025-08-16T22:13:45.109Z</time>
      </trkpt>
      <trkpt lat="51.922915" lon="8.853186">
        <ele>172.055594</ele>
        <time>2025-08-16T22:14:11.675Z</time>
      </trkpt>
      <trkpt lat="51.922976" lon="8.853079">
        <ele>172.428317</ele>
        <time>2025-08-16T22:14:16.355Z</time>
      </trkpt>
      <trkpt lat="51.923047" lon="8.852654">
        <ele>173.554615</ele>
        <time>2025-08-16T22:14:30.492Z</time>
      </trkpt>
      <trkpt lat="51.923293" lon="8.852163">
        <ele>175.172772</ele>
        <time>2025-08-16T22:14:45.545Z</time>
      </trkpt>
      <trkpt lat="51.923631" lon="8.851657">
        <ele>177.086314</ele>
        <time>2025-08-16T22:15:04.239Z</time>
      </trkpt>
      <trkpt lat="51.923713" lon="8.851573">
        <ele>177.490599</ele>
        <time>2025-08-16T22:15:08.254Z</time>
      </trkpt>
      <trkpt lat="51.924219" lon="8.851216">
        <ele>179.790703</ele>
        <time>2025-08-16T22:15:31.414Z</time>
      </trkpt>
      <trkpt lat="51.924267" lon="8.851182">
        <ele>180.009032</ele>
        <time>2025-08-16T22:15:33.612Z</time>
      </trkpt>
      <trkpt lat="51.924364" lon="8.850881">
        <ele>180.882032</ele>
        <time>2025-08-16T22:15:42.185Z</time>
      </trkpt>
      <trkpt lat="51.924607" lon="8.850197">
        <ele>182.911147</ele>
        <time>2025-08-16T22:16:00.735Z</time>
      </trkpt>
      <trkpt lat="51.924621" lon="8.850156">
        <ele>183.031615</ele>
        <time>2025-08-16T22:16:01.773Z</time>
      </trkpt>
      <trkpt lat="51.924819" lon="8.849598">
        <ele>183.723080</ele>
        <time>2025-08-16T22:16:14.899Z</time>
      </trkpt>
      <trkpt lat="51.924885" lon="8.849412">
        <ele>183.840221</ele>
        <time>2025-08-16T22:16:18.884Z</time>
      </trkpt>
      <trkpt lat="51.924955" lon="8.849216">
        <ele>183.963860</ele>
        <time>2025-08-16T22:16:22.895Z</time>
      </trkpt>
      <trkpt lat="51.925001" lon="8.849154">
        <ele>184.016807</ele>
        <time>2025-08-16T22:16:24.577Z</time>
      </trkpt>
      <trkpt lat="51.925276" lon="8.848851">
        <ele>184.311103</ele>
        <time>2025-08-16T22:16:33.230Z</time>
      </trkpt>
      <trkpt lat="51.925790" lon="8.848429">
        <ele>184.821071</ele>
        <time>2025-08-16T22:16:46.198Z</time>
      </trkpt>
      <trkpt lat="51.926163" lon="8.848112">
        <ele>184.808251</ele>
        <time>2025-08-16T22:16:54.415Z</time>
      </trkpt>
      <trkpt lat="51.926372" lon="8.847925">
        <ele>184.430872</ele>
        <time>2025-08-16T22:16:58.826Z</time>
      </trkpt>
      <trkpt lat="51.926419" lon="8.847767">
        <ele>184.259848</ele>
        <time>2025-08-16T22:17:00.792Z</time>
      </trkpt>
      <trkpt lat="51.926840" lon="8.846478">
        <ele>182.837793</ele>
        <time>2025-08-16T22:17:17.663Z</time>
      </trkpt>
      <trkpt lat="51.927066" lon="8.845834">
        <ele>182.072841</ele>
        <time>2025-08-16T22:17:26.041Z</time>
      </trkpt>
      <trkpt lat="51.927141" lon="8.845417">
        <ele>181.462540</ele>
        <time>2025-08-16T22:17:31.006Z</time>
      </trkpt>
      <trkpt lat="51.926964" lon="8.845218">
        <ele>180.971817</ele>
        <time>2025-08-16T22:17:35.010Z</time>
      </trkpt>
      <trkpt lat="51.926924" lon="8.845179">
        <ele>180.865476</ele>
        <time>2025-08-16T22:17:36.151Z</time>
      </trkpt>
      <trkpt lat="51.927087" lon="8.844621">
        <ele>179.997964</ele>
        <time>2025-08-16T22:17:42.703Z</time>
      </trkpt>
      <trkpt lat="51.927149" lon="8.844519">
        <ele>179.796735</ele>
        <time>2025-08-16T22:17:44.194Z</time>
      </trkpt>
      <trkpt lat="51.927182" lon="8.844406">
        <ele>179.621065</ele>
        <time>2025-08-16T22:17:45.487Z</time>
      </trkpt>
      <trkpt lat="51.927261" lon="8.844091">
        <ele>179.143286</ele>
        <time>2025-08-16T22:17:48.976Z</time>
      </trkpt>
      <trkpt lat="51.927312" lon="8.844131">
        <ele>179.014210</ele>
        <time>2025-08-16T22:17:49.929Z</time>
      </trkpt>
      <trkpt lat="51.927381" lon="8.844110">
        <ele>178.854255</ele>
        <time>2025-08-16T22:17:51.097Z</time>
      </trkpt>
      <trkpt lat="51.927458" lon="8.844022">
        <ele>178.639626</ele>
        <time>2025-08-16T22:17:52.685Z</time>
      </trkpt>
      <trkpt lat="51.927748" lon="8.842880">
        <ele>177.282017</ele>
        <time>2025-08-16T22:18:05.750Z</time>
      </trkpt>
      <trkpt lat="51.927724" lon="8.842801">
        <ele>177.196917</ele>
        <time>2025-08-16T22:18:06.724Z</time>
      </trkpt>
      <trkpt lat="51.927720" lon="8.841693">
        <ele>176.126227</ele>
        <time>2025-08-16T22:18:19.200Z</time>
      </trkpt>
      <trkpt lat="51.927763" lon="8.841364">
        <ele>175.801248</ele>
        <time>2025-08-16T22:18:23.397Z</time>
      </trkpt>
      <trkpt lat="51.927807" lon="8.841090">
        <ele>175.527649</ele>
        <time>2025-08-16T22:18:27.032Z</time>
      </trkpt>
      <trkpt lat="51.927912" lon="8.840585">
        <ele>174.955204</ele>
        <time>2025-08-16T22:18:33.758Z</time>
      </trkpt>
      <trkpt lat="51.927634" lon="8.840421">
        <ele>174.397390</ele>
        <time>2025-08-16T22:18:39.761Z</time>
      </trkpt>
      <trkpt lat="51.927912" lon="8.840585">
        <ele>173.839575</ele>
        <time>2025-08-16T22:18:45.493Z</time>
      </trkpt>
      <trkpt lat="51.927975" lon="8.840233">
        <ele>173.413386</ele>
        <time>2025-08-16T22:18:49.499Z</time>
      </trkpt>
      <trkpt lat="51.928267" lon="8.838953">
        <ele>171.805832</ele>
        <time>2025-08-16T22:19:03.917Z</time>
      </trkpt>
      <trkpt lat="51.928321" lon="8.838849">
        <ele>171.605556</ele>
        <time>2025-08-16T22:19:05.258Z</time>
      </trkpt>
      <trkpt lat="51.928290" lon="8.838756">
        <ele>171.449827</ele>
        <time>2025-08-16T22:19:06.275Z</time>
      </trkpt>
      <trkpt lat="51.928098" lon="8.838751">
        <ele>170.991112</ele>
        <time>2025-08-16T22:19:09.312Z</time>
      </trkpt>
      <trkpt lat="51.927935" lon="8.838681">
        <ele>170.588310</ele>
        <time>2025-08-16T22:19:11.937Z</time>
      </trkpt>
      <trkpt lat="51.928088" lon="8.838186">
        <ele>169.772665</ele>
        <time>2025-08-16T22:19:17.344Z</time>
      </trkpt>
      <trkpt lat="51.928227" lon="8.837735">
        <ele>169.029951</ele>
        <time>2025-08-16T22:19:22.453Z</time>
      </trkpt>
      <trkpt lat="51.928298" lon="8.837626">
        <ele>168.796397</ele>
        <time>2025-08-16T22:19:24.116Z</time>
      </trkpt>
      <trkpt lat="51.928498" lon="8.837406">
        <ele>168.219088</ele>
        <time>2025-08-16T22:19:28.350Z</time>
      </trkpt>
      <trkpt lat="51.928577" lon="8.837274">
        <ele>167.948122</ele>
        <time>2025-08-16T22:19:30.375Z</time>
      </trkpt>
      <trkpt lat="51.928618" lon="8.837141">
        <ele>167.729088</ele>
        <time>2025-08-16T22:19:32.054Z</time>
      </trkpt>
      <trkpt lat="51.928783" lon="8.836525">
        <ele>168.851551</ele>
        <time>2025-08-16T22:19:42.371Z</time>
      </trkpt>
      <trkpt lat="51.928797" lon="8.836472">
        <ele>168.973421</ele>
        <time>2025-08-16T22:19:43.491Z</time>
      </trkpt>
      <trkpt lat="51.928842" lon="8.836306">
        <ele>169.356699</ele>
        <time>2025-08-16T22:19:46.988Z</time>
      </trkpt>
      <trkpt lat="51.929027" lon="8.835610">
        <ele>170.958666</ele>
        <time>2025-08-16T22:20:05.042Z</time>
      </trkpt>
      <trkpt lat="51.929166" lon="8.835084">
        <ele>172.168243</ele>
        <time>2025-08-16T22:20:20.965Z</time>
      </trkpt>
      <trkpt lat="51.929269" lon="8.834705">
        <ele>173.043669</ele>
        <time>2025-08-16T22:20:32.479Z</time>
      </trkpt>
      <trkpt lat="51.929282" lon="8.834661">
        <ele>173.146794</ele>
        <time>2025-08-16T22:20:33.953Z</time>
      </trkpt>
      <trkpt lat="51.929296" lon="8.834608">
        <ele>173.268663</ele>
        <time>2025-08-16T22:20:35.620Z</time>
      </trkpt>
      <trkpt lat="51.929590" lon="8.833497">
        <ele>175.728572</ele>
        <time>2025-08-16T22:21:07.054Z</time>
      </trkpt>
      <trkpt lat="51.929645" lon="8.833360">
        <ele>176.058026</ele>
        <time>2025-08-16T22:21:10.575Z</time>
      </trkpt>
      <trkpt lat="51.929113" lon="8.833170">
        <ele>177.838400</ele>
        <time>2025-08-16T22:21:28.641Z</time>
      </trkpt>
      <trkpt lat="51.928364" lon="8.832928">
        <ele>179.883263</ele>
        <time>2025-08-16T22:21:50.895Z</time>
      </trkpt>
      <trkpt lat="51.928201" lon="8.832876">
        <ele>180.067910</ele>
        <time>2025-08-16T22:21:55.580Z</time>
      </trkpt>
      <trkpt lat="51.928123" lon="8.832851">
        <ele>180.156283</ele>
        <time>2025-08-16T22:21:57.756Z</time>
      </trkpt>
      <trkpt lat="51.927681" lon="8.832680">
        <ele>180.661352</ele>
        <time>2025-08-16T22:22:10.053Z</time>
      </trkpt>
      <trkpt lat="51.927552" lon="8.832630">
        <ele>180.808773</ele>
        <time>2025-08-16T22:22:13.578Z</time>
      </trkpt>
      <trkpt lat="51.927409" lon="8.832582">
        <ele>180.971087</ele>
        <time>2025-08-16T22:22:17.402Z</time>
      </trkpt>
      <trkpt lat="51.927138" lon="8.832493">
        <ele>181.278417</ele>
        <time>2025-08-16T22:22:24.478Z</time>
      </trkpt>
      <trkpt lat="51.927105" lon="8.832482">
        <ele>181.315863</ele>
        <time>2025-08-16T22:22:25.320Z</time>
      </trkpt>
      <trkpt lat="51.927094" lon="8.832551">
        <ele>181.364712</ele>
        <time>2025-08-16T22:22:26.659Z</time>
      </trkpt>
      <trkpt lat="51.927105" lon="8.832482">
        <ele>181.413561</ele>
        <time>2025-08-16T22:22:28.116Z</time>
      </trkpt>
      <trkpt lat="51.926760" lon="8.832379">
        <ele>181.795391</ele>
        <time>2025-08-16T22:22:36.650Z</time>
      </trkpt>
      <trkpt lat="51.926617" lon="8.832316">
        <ele>181.951429</ele>
        <time>2025-08-16T22:22:40.240Z</time>
      </trkpt>
      <trkpt lat="51.925744" lon="8.832007">
        <ele>182.892342</ele>
        <time>2025-08-16T22:23:02.160Z</time>
      </trkpt>
      <trkpt lat="51.925111" lon="8.831786">
        <ele>183.613603</ele>
        <time>2025-08-16T22:23:20.794Z</time>
      </trkpt>
      <trkpt lat="51.924867" lon="8.831698">
        <ele>184.219875</ele>
        <time>2025-08-16T22:23:28.878Z</time>
      </trkpt>
      <trkpt lat="51.924515" lon="8.831572">
        <ele>185.094190</ele>
        <time>2025-08-16T22:23:40.503Z</time>
      </trkpt>
      <trkpt lat="51.924393" lon="8.831528">
        <ele>185.397326</ele>
        <time>2025-08-16T22:23:44.640Z</time>
      </trkpt>
      <trkpt lat="51.924198" lon="8.831455">
        <ele>185.882731</ele>
        <time>2025-08-16T22:23:51.195Z</time>
      </trkpt>
      <trkpt lat="51.924131" lon="8.831424">
        <ele>186.051722</ele>
        <time>2025-08-16T22:23:53.591Z</time>
      </trkpt>
      <trkpt lat="51.924114" lon="8.831493">
        <ele>186.162863</ele>
        <time>2025-08-16T22:23:54.906Z</time>
      </trkpt>
      <trkpt lat="51.924040" lon="8.831452">
        <ele>186.352535</ele>
        <time>2025-08-16T22:23:57.577Z</time>
      </trkpt>
      <trkpt lat="51.923870" lon="8.831375">
        <ele>186.780647</ele>
        <time>2025-08-16T22:24:03.299Z</time>
      </trkpt>
      <trkpt lat="51.923294" lon="8.831164">
        <ele>188.272251</ele>
        <time>2025-08-16T22:24:22.244Z</time>
      </trkpt>
      <trkpt lat="51.922781" lon="8.830969">
        <ele>189.797662</ele>
        <time>2025-08-16T22:24:39.151Z</time>
      </trkpt>
      <trkpt lat="51.922325" lon="8.830799">
        <ele>191.152238</ele>
        <time>2025-08-16T22:24:55.131Z</time>
      </trkpt>
      <trkpt lat="51.922119" lon="8.830722">
        <ele>191.764254</ele>
        <time>2025-08-16T22:25:02.604Z</time>
      </trkpt>
      <trkpt lat="51.921670" lon="8.830555">
        <ele>193.097881</ele>
        <time>2025-08-16T22:25:19.097Z</time>
      </trkpt>
      <trkpt lat="51.921444" lon="8.830457">
        <ele>193.683632</ele>
        <time>2025-08-16T22:25:27.377Z</time>
      </trkpt>
      <trkpt lat="51.920851" lon="8.830202">
        <ele>195.214044</ele>
        <time>2025-08-16T22:25:47.930Z</time>
      </trkpt>
      <trkpt lat="51.920786" lon="8.830174">
        <ele>195.381815</ele>
        <time>2025-08-16T22:25:50.046Z</time>
      </trkpt>
      <trkpt lat="51.919987" lon="8.829831">
        <ele>197.443643</ele>
        <time>2025-08-16T22:26:14.858Z</time>
      </trkpt>
      <trkpt lat="51.919591" lon="8.829566">
        <ele>198.571207</ele>
        <time>2025-08-16T22:26:27.952Z</time>
      </trkpt>
      <trkpt lat="51.919520" lon="8.829508">
        <ele>198.782337</ele>
        <time>2025-08-16T22:26:30.464Z</time>
      </trkpt>
      <trkpt lat="51.919435" lon="8.829413">
        <ele>199.056501</ele>
        <time>2025-08-16T22:26:33.783Z</time>
      </trkpt>
      <trkpt lat="51.918411" lon="8.828035">
        <ele>202.619238</ele>
        <time>2025-08-16T22:27:19.075Z</time>
      </trkpt>
      <trkpt lat="51.917819" lon="8.827216">
        <ele>204.963652</ele>
        <time>2025-08-16T22:27:44.483Z</time>
      </trkpt>
      <trkpt lat="51.917519" lon="8.826875">
        <ele>206.067385</ele>
        <time>2025-08-16T22:27:56.101Z</time>
      </trkpt>
      <trkpt lat="51.917436" lon="8.826843">
        <ele>206.324395</ele>
        <time>2025-08-16T22:27:58.818Z</time>
      </trkpt>
      <trkpt lat="51.917427" lon="8.826786">
        <ele>206.433722</ele>
        <time>2025-08-16T22:28:00.078Z</time>
      </trkpt>
      <trkpt lat="51.917236" lon="8.826524">
        <ele>207.187426</ele>
        <time>2025-08-16T22:28:08.838Z</time>
      </trkpt>
      <trkpt lat="51.917031" lon="8.826124">
        <ele>208.474360</ele>
        <time>2025-08-16T22:28:21.063Z</time>
      </trkpt>
      <trkpt lat="51.916827" lon="8.825703">
        <ele>210.358989</ele>
        <time>2025-08-16T22:28:34.510Z</time>
      </trkpt>
      <trkpt lat="51.916557" lon="8.824778">
        <ele>213.961389</ele>
        <time>2025-08-16T22:29:02.553Z</time>
      </trkpt>
      <trkpt lat="51.916297" lon="8.824054">
        <ele>216.910533</ele>
        <time>2025-08-16T22:29:28.019Z</time>
      </trkpt>
      <trkpt lat="51.916109" lon="8.823432">
        <ele>219.977074</ele>
        <time>2025-08-16T22:29:50.134Z</time>
      </trkpt>
      <trkpt lat="51.916066" lon="8.822602">
        <ele>224.338797</ele>
        <time>2025-08-16T22:30:16.816Z</time>
      </trkpt>
      <trkpt lat="51.916029" lon="8.822283">
        <ele>226.038567</ele>
        <time>2025-08-16T22:30:27.665Z</time>
      </trkpt>
      <trkpt lat="51.915785" lon="8.820990">
        <ele>233.119373</ele>
        <time>2025-08-16T22:31:16.392Z</time>
      </trkpt>
      <trkpt lat="51.915537" lon="8.819853">
        <ele>242.918958</ele>
        <time>2025-08-16T22:32:06.841Z</time>
      </trkpt>
      <trkpt lat="51.915350" lon="8.818725">
        <ele>252.526889</ele>
        <time>2025-08-16T22:33:04.857Z</time>
      </trkpt>
      <trkpt lat="51.915264" lon="8.817826">
        <ele>260.365143</ele>
        <time>2025-08-16T22:33:53.395Z</time>
      </trkpt>
      <trkpt lat="51.915201" lon="8.817554">
        <ele>263.069974</ele>
        <time>2025-08-16T22:34:09.018Z</time>
      </trkpt>
      <trkpt lat="51.915107" lon="8.817314">
        <ele>265.716634</ele>
        <time>2025-08-16T22:34:24.180Z</time>
      </trkpt>
      <trkpt lat="51.914770" lon="8.816716">
        <ele>273.257374</ele>
        <time>2025-08-16T22:35:06.640Z</time>
      </trkpt>
      <trkpt lat="51.914437" lon="8.816238">
        <ele>279.970190</ele>
        <time>2025-08-16T22:35:42.899Z</time>
      </trkpt>
      <trkpt lat="51.914036" lon="8.815782">
        <ele>287.118956</ele>
        <time>2025-08-16T22:36:20.726Z</time>
      </trkpt>
      <trkpt lat="51.912853" lon="8.814609">
        <ele>306.288497</ele>
        <time>2025-08-16T22:38:08.236Z</time>
      </trkpt>
      <trkpt lat="51.912564" lon="8.813971">
        <ele>312.653025</ele>
        <time>2025-08-16T22:38:46.333Z</time>
      </trkpt>
      <trkpt lat="51.912139" lon="8.813552">
        <ele>318.815737</ele>
        <time>2025-08-16T22:39:24.225Z</time>
      </trkpt>
      <trkpt lat="51.911925" lon="8.813166">
        <ele>322.782109</ele>
        <time>2025-08-16T22:39:47.669Z</time>
      </trkpt>
      <trkpt lat="51.911640" lon="8.813076">
        <ele>326.379422</ele>
        <time>2025-08-16T22:40:08.290Z</time>
      </trkpt>
      <trkpt lat="51.911508" lon="8.812997">
        <ele>328.122699</ele>
        <time>2025-08-16T22:40:18.026Z</time>
      </trkpt>
      <trkpt lat="51.911057" lon="8.812516">
        <ele>333.322585</ele>
        <time>2025-08-16T22:40:52.600Z</time>
      </trkpt>
      <trkpt lat="51.910389" lon="8.812062">
        <ele>338.123070</ele>
        <time>2025-08-16T22:41:33.058Z</time>
      </trkpt>
      <trkpt lat="51.910183" lon="8.812071">
        <ele>339.488817</ele>
        <time>2025-08-16T22:41:43.185Z</time>
      </trkpt>
      <trkpt lat="51.909855" lon="8.812167">
        <ele>341.697764</ele>
        <time>2025-08-16T22:41:57.309Z</time>
      </trkpt>
      <trkpt lat="51.909647" lon="8.812182">
        <ele>343.077633</ele>
        <time>2025-08-16T22:42:04.471Z</time>
      </trkpt>
      <trkpt lat="51.909394" lon="8.812137">
        <ele>342.609674</ele>
        <time>2025-08-16T22:42:11.271Z</time>
      </trkpt>
      <trkpt lat="51.909352" lon="8.812160">
        <ele>342.390283</ele>
        <time>2025-08-16T22:42:12.354Z</time>
      </trkpt>
      <trkpt lat="51.909272" lon="8.812012">
        <ele>341.789535</ele>
        <time>2025-08-16T22:42:15.018Z</time>
      </trkpt>
      <trkpt lat="51.909167" lon="8.811658">
        <ele>340.590355</ele>
        <time>2025-08-16T22:42:19.800Z</time>
      </trkpt>
      <trkpt lat="51.909086" lon="8.811244">
        <ele>339.264382</ele>
        <time>2025-08-16T22:42:24.566Z</time>
      </trkpt>
      <trkpt lat="51.909074" lon="8.810701">
        <ele>337.605552</ele>
        <time>2025-08-16T22:42:30.096Z</time>
      </trkpt>
      <trkpt lat="51.909146" lon="8.810118">
        <ele>335.790352</ele>
        <time>2025-08-16T22:42:35.786Z</time>
      </trkpt>
      <trkpt lat="51.909141" lon="8.809595">
        <ele>333.618696</ele>
        <time>2025-08-16T22:42:40.685Z</time>
      </trkpt>
      <trkpt lat="51.909096" lon="8.809114">
        <ele>330.176477</ele>
        <time>2025-08-16T22:42:45.194Z</time>
      </trkpt>
      <trkpt lat="51.908710" lon="8.807554">
        <ele>318.283935</ele>
        <time>2025-08-16T22:43:00.711Z</time>
      </trkpt>
      <trkpt lat="51.908626" lon="8.806714">
        <ele>312.494610</ele>
        <time>2025-08-16T22:43:08.624Z</time>
      </trkpt>
      <trkpt lat="51.908603" lon="8.806484">
        <ele>311.065821</ele>
        <time>2025-08-16T22:43:10.803Z</time>
      </trkpt>
      <trkpt lat="51.908473" lon="8.805948">
        <ele>307.534133</ele>
        <time>2025-08-16T22:43:16.219Z</time>
      </trkpt>
      <trkpt lat="51.908433" lon="8.805779">
        <ele>306.424154</ele>
        <time>2025-08-16T22:43:17.928Z</time>
      </trkpt>
      <trkpt lat="51.907970" lon="8.804095">
        <ele>295.335627</ele>
        <time>2025-08-16T22:43:35.544Z</time>
      </trkpt>
      <trkpt lat="51.907697" lon="8.802801">
        <ele>288.763102</ele>
        <time>2025-08-16T22:43:48.839Z</time>
      </trkpt>
      <trkpt lat="51.907214" lon="8.801146">
        <ele>280.477665</ele>
        <time>2025-08-16T22:44:07.060Z</time>
      </trkpt>
      <trkpt lat="51.906395" lon="8.797918">
        <ele>268.226489</ele>
        <time>2025-08-16T22:44:43.186Z</time>
      </trkpt>
      <trkpt lat="51.906221" lon="8.797351">
        <ele>266.227242</ele>
        <time>2025-08-16T22:44:49.812Z</time>
      </trkpt>
      <trkpt lat="51.906255" lon="8.797253">
        <ele>265.872290</ele>
        <time>2025-08-16T22:44:50.975Z</time>
      </trkpt>
      <trkpt lat="51.907101" lon="8.793444">
        <ele>254.336891</ele>
        <time>2025-08-16T22:45:34.277Z</time>
      </trkpt>
      <trkpt lat="51.907476" lon="8.793641">
        <ele>252.853415</ele>
        <time>2025-08-16T22:45:45.947Z</time>
      </trkpt>
      <trkpt lat="51.907547" lon="8.793717">
        <ele>252.534592</ele>
        <time>2025-08-16T22:45:48.467Z</time>
      </trkpt>
      <trkpt lat="51.907476" lon="8.793641">
        <ele>252.215770</ele>
        <time>2025-08-16T22:45:50.960Z</time>
      </trkpt>
      <trkpt lat="51.907101" lon="8.793444">
        <ele>250.738641</ele>
        <time>2025-08-16T22:46:02.581Z</time>
      </trkpt>
      <trkpt lat="51.907421" lon="8.791992">
        <ele>247.204500</ele>
        <time>2025-08-16T22:46:19.512Z</time>
      </trkpt>
      <trkpt lat="51.907687" lon="8.791072">
        <ele>245.042050</ele>
        <time>2025-08-16T22:46:30.525Z</time>
      </trkpt>
      <trkpt lat="51.907820" lon="8.791036">
        <ele>244.576862</ele>
        <time>2025-08-16T22:46:32.659Z</time>
      </trkpt>
      <trkpt lat="51.907830" lon="8.790890">
        <ele>244.264216</ele>
        <time>2025-08-16T22:46:34.111Z</time>
      </trkpt>
      <trkpt lat="51.909205" lon="8.787901">
        <ele>237.703262</ele>
        <time>2025-08-16T22:47:12.520Z</time>
      </trkpt>
      <trkpt lat="51.909365" lon="8.787554">
        <ele>237.033620</ele>
        <time>2025-08-16T22:47:17.268Z</time>
      </trkpt>
      <trkpt lat="51.910466" lon="8.785160">
        <ele>233.906318</ele>
        <time>2025-08-16T22:47:51.144Z</time>
      </trkpt>
      <trkpt lat="51.911817" lon="8.782211">
        <ele>229.843021</ele>
        <time>2025-08-16T22:48:30.111Z</time>
      </trkpt>
      <trkpt lat="51.911956" lon="8.781963">
        <ele>229.760900</ele>
        <time>2025-08-16T22:48:34.344Z</time>
      </trkpt>
      <trkpt lat="51.912142" lon="8.781752">
        <ele>229.670707</ele>
        <time>2025-08-16T22:48:39.398Z</time>
      </trkpt>
      <trkpt lat="51.912655" lon="8.781299">
        <ele>229.438621</ele>
        <time>2025-08-16T22:48:53.917Z</time>
      </trkpt>
      <trkpt lat="51.913280" lon="8.780786">
        <ele>229.610192</ele>
        <time>2025-08-16T22:49:10.493Z</time>
      </trkpt>
      <trkpt lat="51.913349" lon="8.780714">
        <ele>229.681653</ele>
        <time>2025-08-16T22:49:12.533Z</time>
      </trkpt>
      <trkpt lat="51.913403" lon="8.780619">
        <ele>229.751050</ele>
        <time>2025-08-16T22:49:14.487Z</time>
      </trkpt>
      <trkpt lat="51.913433" lon="8.780490">
        <ele>229.825109</ele>
        <time>2025-08-16T22:49:16.564Z</time>
      </trkpt>
      <trkpt lat="51.913415" lon="8.780179">
        <ele>229.992910</ele>
        <time>2025-08-16T22:49:21.233Z</time>
      </trkpt>
      <trkpt lat="51.913725" lon="8.780097">
        <ele>230.266448</ele>
        <time>2025-08-16T22:49:29.079Z</time>
      </trkpt>
      <trkpt lat="51.914103" lon="8.779926">
        <ele>230.608210</ele>
        <time>2025-08-16T22:49:39.096Z</time>
      </trkpt>
      <trkpt lat="51.914445" lon="8.779666">
        <ele>231.062636</ele>
        <time>2025-08-16T22:49:49.271Z</time>
      </trkpt>
      <trkpt lat="51.915238" lon="8.778977">
        <ele>233.259587</ele>
        <time>2025-08-16T22:50:19.122Z</time>
      </trkpt>
      <trkpt lat="51.917038" lon="8.777394">
        <ele>238.515979</ele>
        <time>2025-08-16T22:51:26.465Z</time>
      </trkpt>
      <trkpt lat="51.917553" lon="8.776952">
        <ele>240.049991</ele>
        <time>2025-08-16T22:51:46.080Z</time>
      </trkpt>
      <trkpt lat="51.918566" lon="8.776059">
        <ele>242.176530</ele>
        <time>2025-08-16T22:52:21.935Z</time>
      </trkpt>
      <trkpt lat="51.919279" lon="8.775431">
        <ele>243.262413</ele>
        <time>2025-08-16T22:52:43.305Z</time>
      </trkpt>
      <trkpt lat="51.919656" lon="8.775055">
        <ele>243.061197</ele>
        <time>2025-08-16T22:52:54.462Z</time>
      </trkpt>
      <trkpt lat="51.920087" lon="8.774468">
        <ele>242.805309</ele>
        <time>2025-08-16T22:53:07.216Z</time>
      </trkpt>
      <trkpt lat="51.920601" lon="8.773482">
        <ele>241.777315</ele>
        <time>2025-08-16T22:53:21.656Z</time>
      </trkpt>
      <trkpt lat="51.921849" lon="8.770980">
        <ele>233.212590</ele>
        <time>2025-08-16T22:53:52.020Z</time>
      </trkpt>
      <trkpt lat="51.922008" lon="8.770551">
        <ele>231.615018</ele>
        <time>2025-08-16T22:53:56.594Z</time>
      </trkpt>
      <trkpt lat="51.922203" lon="8.769848">
        <ele>229.154604</ele>
        <time>2025-08-16T22:54:03.651Z</time>
      </trkpt>
      <trkpt lat="51.922261" lon="8.769553">
        <ele>228.166307</ele>
        <time>2025-08-16T22:54:06.521Z</time>
      </trkpt>
      <trkpt lat="51.922348" lon="8.769522">
        <ele>227.705294</ele>
        <time>2025-08-16T22:54:07.867Z</time>
      </trkpt>
      <trkpt lat="51.922710" lon="8.769121">
        <ele>225.434385</ele>
        <time>2025-08-16T22:54:14.525Z</time>
      </trkpt>
      <trkpt lat="51.923715" lon="8.768164">
        <ele>219.371305</ele>
        <time>2025-08-16T22:54:31.980Z</time>
      </trkpt>
      <trkpt lat="51.923817" lon="8.767991">
        <ele>218.603442</ele>
        <time>2025-08-16T22:54:34.172Z</time>
      </trkpt>
      <trkpt lat="51.924187" lon="8.766622">
        <ele>214.833360</ele>
        <time>2025-08-16T22:54:47.972Z</time>
      </trkpt>
      <trkpt lat="51.924295" lon="8.766196">
        <ele>213.929204</ele>
        <time>2025-08-16T22:54:52.367Z</time>
      </trkpt>
      <trkpt lat="51.924428" lon="8.765643">
        <ele>212.764020</ele>
        <time>2025-08-16T22:54:58.361Z</time>
      </trkpt>
      <trkpt lat="51.924987" lon="8.766035">
        <ele>210.825402</ele>
        <time>2025-08-16T22:55:09.557Z</time>
      </trkpt>
      <trkpt lat="51.925073" lon="8.766074">
        <ele>210.716040</ele>
        <time>2025-08-16T22:55:11.345Z</time>
      </trkpt>
      <trkpt lat="51.926117" lon="8.766505">
        <ele>210.559977</ele>
        <time>2025-08-16T22:55:35.005Z</time>
      </trkpt>
      <trkpt lat="51.926303" lon="8.766609">
        <ele>210.531475</ele>
        <time>2025-08-16T22:55:39.697Z</time>
      </trkpt>
      <trkpt lat="51.926498" lon="8.766730">
        <ele>210.501229</ele>
        <time>2025-08-16T22:55:44.710Z</time>
      </trkpt>
      <trkpt lat="51.927052" lon="8.767203">
        <ele>209.702466</ele>
        <time>2025-08-16T22:55:59.220Z</time>
      </trkpt>
      <trkpt lat="51.927337" lon="8.767561">
        <ele>208.956326</ele>
        <time>2025-08-16T22:56:06.771Z</time>
      </trkpt>
      <trkpt lat="51.927690" lon="8.768218">
        <ele>207.844151</ele>
        <time>2025-08-16T22:56:16.246Z</time>
      </trkpt>
      <trkpt lat="51.927898" lon="8.768678">
        <ele>207.116128</ele>
        <time>2025-08-16T22:56:21.838Z</time>
      </trkpt>
      <trkpt lat="51.928854" lon="8.771037">
        <ele>199.306093</ele>
        <time>2025-08-16T22:56:47.616Z</time>
      </trkpt>
      <trkpt lat="51.930241" lon="8.774442">
        <ele>193.096134</ele>
        <time>2025-08-16T22:57:31.100Z</time>
      </trkpt>
      <trkpt lat="51.930574" lon="8.775093">
        <ele>192.364770</ele>
        <time>2025-08-16T22:57:41.689Z</time>
      </trkpt>
      <trkpt lat="51.930815" lon="8.775433">
        <ele>191.916850</ele>
        <time>2025-08-16T22:57:48.007Z</time>
      </trkpt>
      <trkpt lat="51.930914" lon="8.775552">
        <ele>191.744052</ele>
        <time>2025-08-16T22:57:50.400Z</time>
      </trkpt>
      <trkpt lat="51.931627" lon="8.776368">
        <ele>189.546212</ele>
        <time>2025-08-16T22:58:06.186Z</time>
      </trkpt>
      <trkpt lat="51.931997" lon="8.776920">
        <ele>187.893658</ele>
        <time>2025-08-16T22:58:14.367Z</time>
      </trkpt>
      <trkpt lat="51.932183" lon="8.777274">
        <ele>186.951001</ele>
        <time>2025-08-16T22:58:18.955Z</time>
      </trkpt>
      <trkpt lat="51.932920" lon="8.778980">
        <ele>181.134227</ele>
        <time>2025-08-16T22:58:38.334Z</time>
      </trkpt>
      <trkpt lat="51.933017" lon="8.779143">
        <ele>180.393858</ele>
        <time>2025-08-16T22:58:40.387Z</time>
      </trkpt>
      <trkpt lat="51.933153" lon="8.779281">
        <ele>179.543519</ele>
        <time>2025-08-16T22:58:42.740Z</time>
      </trkpt>
      <trkpt lat="51.933272" lon="8.779333">
        <ele>178.890260</ele>
        <time>2025-08-16T22:58:44.542Z</time>
      </trkpt>
      <trkpt lat="51.933580" lon="8.779328">
        <ele>177.257608</ele>
        <time>2025-08-16T22:58:49.046Z</time>
      </trkpt>
      <trkpt lat="51.933907" lon="8.779265">
        <ele>175.604159</ele>
        <time>2025-08-16T22:58:53.869Z</time>
      </trkpt>
      <trkpt lat="51.935485" lon="8.778985">
        <ele>169.889353</ele>
        <time>2025-08-16T22:59:19.081Z</time>
      </trkpt>
      <trkpt lat="51.935526" lon="8.779307">
        <ele>169.285861</ele>
        <time>2025-08-16T22:59:22.783Z</time>
      </trkpt>
      <trkpt lat="51.935536" lon="8.779375">
        <ele>169.250071</ele>
        <time>2025-08-16T22:59:23.577Z</time>
      </trkpt>
      <trkpt lat="51.935610" lon="8.779804">
        <ele>169.022004</ele>
        <time>2025-08-16T22:59:28.913Z</time>
      </trkpt>
      <trkpt lat="51.935626" lon="8.779918">
        <ele>168.962147</ele>
        <time>2025-08-16T22:59:30.350Z</time>
      </trkpt>
      <trkpt lat="51.935650" lon="8.780091">
        <ele>168.871362</ele>
        <time>2025-08-16T22:59:32.616Z</time>
      </trkpt>
      <trkpt lat="51.935661" lon="8.780157">
        <ele>168.836360</ele>
        <time>2025-08-16T22:59:33.478Z</time>
      </trkpt>
      <trkpt lat="51.935669" lon="8.780233">
        <ele>168.796887</ele>
        <time>2025-08-16T22:59:34.493Z</time>
      </trkpt>
      <trkpt lat="51.935676" lon="8.780286">
        <ele>168.769138</ele>
        <time>2025-08-16T22:59:35.205Z</time>
      </trkpt>
      <trkpt lat="51.935682" lon="8.780336">
        <ele>168.743059</ele>
        <time>2025-08-16T22:59:35.855Z</time>
      </trkpt>
      <trkpt lat="51.935691" lon="8.780445">
        <ele>168.686757</ele>
        <time>2025-08-16T22:59:37.272Z</time>
      </trkpt>
      <trkpt lat="51.935694" lon="8.780593">
        <ele>168.610945</ele>
        <time>2025-08-16T22:59:39.227Z</time>
      </trkpt>
      <trkpt lat="51.935695" lon="8.780673">
        <ele>168.569980</ele>
        <time>2025-08-16T22:59:40.273Z</time>
      </trkpt>
      <trkpt lat="51.935696" lon="8.780751">
        <ele>168.530038</ele>
        <time>2025-08-16T22:59:41.333Z</time>
      </trkpt>
      <trkpt lat="51.935696" lon="8.780799">
        <ele>168.505463</ele>
        <time>2025-08-16T22:59:41.973Z</time>
      </trkpt>
      <trkpt lat="51.935696" lon="8.780828">
        <ele>168.490616</ele>
        <time>2025-08-16T22:59:42.363Z</time>
      </trkpt>
      <trkpt lat="51.935696" lon="8.780845">
        <ele>168.481913</ele>
        <time>2025-08-16T22:59:42.588Z</time>
      </trkpt>
      <trkpt lat="51.935698" lon="8.780955">
        <ele>168.425572</ele>
        <time>2025-08-16T22:59:44.076Z</time>
      </trkpt>
      <trkpt lat="51.935700" lon="8.781030">
        <ele>168.387139</ele>
        <time>2025-08-16T22:59:45.065Z</time>
      </trkpt>
      <trkpt lat="51.935699" lon="8.781114">
        <ele>168.344126</ele>
        <time>2025-08-16T22:59:46.170Z</time>
      </trkpt>
      <trkpt lat="51.935696" lon="8.781186">
        <ele>168.307181</ele>
        <time>2025-08-16T22:59:47.121Z</time>
      </trkpt>
      <trkpt lat="51.935693" lon="8.781241">
        <ele>168.278913</ele>
        <time>2025-08-16T22:59:47.844Z</time>
      </trkpt>
      <trkpt lat="51.935691" lon="8.781292">
        <ele>168.252750</ele>
        <time>2025-08-16T22:59:48.510Z</time>
      </trkpt>
      <trkpt lat="51.935679" lon="8.781501">
        <ele>168.145286</ele>
        <time>2025-08-16T22:59:51.267Z</time>
      </trkpt>
      <trkpt lat="51.935642" lon="8.781930">
        <ele>167.923515</ele>
        <time>2025-08-16T22:59:56.945Z</time>
      </trkpt>
      <trkpt lat="51.935633" lon="8.781966">
        <ele>167.903626</ele>
        <time>2025-08-16T22:59:57.455Z</time>
      </trkpt>
      <trkpt lat="51.935585" lon="8.782518">
        <ele>167.363544</ele>
        <time>2025-08-16T23:00:04.527Z</time>
      </trkpt>
      <trkpt lat="51.935540" lon="8.783449">
        <ele>166.310963</ele>
        <time>2025-08-16T23:00:15.052Z</time>
      </trkpt>
      <trkpt lat="51.935845" lon="8.783499">
        <ele>165.750540</ele>
        <time>2025-08-16T23:00:20.229Z</time>
      </trkpt>
      <trkpt lat="51.935928" lon="8.783515">
        <ele>165.597736</ele>
        <time>2025-08-16T23:00:21.676Z</time>
      </trkpt>
      <trkpt lat="51.936240" lon="8.783567">
        <ele>165.024354</ele>
        <time>2025-08-16T23:00:27.058Z</time>
      </trkpt>
      <trkpt lat="51.936296" lon="8.783575">
        <ele>164.921582</ele>
        <time>2025-08-16T23:00:27.998Z</time>
      </trkpt>
      <trkpt lat="51.936448" lon="8.783599">
        <ele>164.642391</ele>
        <time>2025-08-16T23:00:30.597Z</time>
      </trkpt>
      <trkpt lat="51.936560" lon="8.783617">
        <ele>164.431986</ele>
        <time>2025-08-16T23:00:32.492Z</time>
      </trkpt>
      <trkpt lat="51.936587" lon="8.783620">
        <ele>164.380327</ele>
        <time>2025-08-16T23:00:32.952Z</time>
      </trkpt>
      <trkpt lat="51.936757" lon="8.783684">
        <ele>164.047202</ele>
        <time>2025-08-16T23:00:35.871Z</time>
      </trkpt>
      <trkpt lat="51.936871" lon="8.783773">
        <ele>163.805701</ele>
        <time>2025-08-16T23:00:37.971Z</time>
      </trkpt>
      <trkpt lat="51.937068" lon="8.783948">
        <ele>163.376961</ele>
        <time>2025-08-16T23:00:41.696Z</time>
      </trkpt>
      <trkpt lat="51.937084" lon="8.783955">
        <ele>163.345328</ele>
        <time>2025-08-16T23:00:41.979Z</time>
      </trkpt>
      <trkpt lat="51.937223" lon="8.784079">
        <ele>163.042520</ele>
        <time>2025-08-16T23:00:44.617Z</time>
      </trkpt>
      <trkpt lat="51.937850" lon="8.783723">
        <ele>161.774482</ele>
        <time>2025-08-16T23:00:56.374Z</time>
      </trkpt>
      <trkpt lat="51.938114" lon="8.783650">
        <ele>161.263283</ele>
        <time>2025-08-16T23:01:01.512Z</time>
      </trkpt>
      <trkpt lat="51.938398" lon="8.783754">
        <ele>161.551838</ele>
        <time>2025-08-16T23:01:07.504Z</time>
      </trkpt>
      <trkpt lat="51.938544" lon="8.783844">
        <ele>161.881126</ele>
        <time>2025-08-16T23:01:10.993Z</time>
      </trkpt>
      <trkpt lat="51.938770" lon="8.783688">
        <ele>162.398946</ele>
        <time>2025-08-16T23:01:16.925Z</time>
      </trkpt>
      <trkpt lat="51.938544" lon="8.783844">
        <ele>162.916767</ele>
        <time>2025-08-16T23:01:23.699Z</time>
      </trkpt>
      <trkpt lat="51.938527" lon="8.784114">
        <ele>163.269530</ele>
        <time>2025-08-16T23:01:29.263Z</time>
      </trkpt>
      <trkpt lat="51.938548" lon="8.784257">
        <ele>163.460597</ele>
        <time>2025-08-16T23:01:32.488Z</time>
      </trkpt>
      <trkpt lat="51.939037" lon="8.784934">
        <ele>164.816012</ele>
        <time>2025-08-16T23:01:58.047Z</time>
      </trkpt>
      <trkpt lat="51.939069" lon="8.784975">
        <ele>164.903462</ele>
        <time>2025-08-16T23:01:59.804Z</time>
      </trkpt>
      <trkpt lat="51.939220" lon="8.785167">
        <ele>165.800251</ele>
        <time>2025-08-16T23:02:08.027Z</time>
      </trkpt>
      <trkpt lat="51.939300" lon="8.785177">
        <ele>166.175285</ele>
        <time>2025-08-16T23:02:11.417Z</time>
      </trkpt>
      <trkpt lat="51.939358" lon="8.785264">
        <ele>166.544530</ele>
        <time>2025-08-16T23:02:14.886Z</time>
      </trkpt>
      <trkpt lat="51.939583" lon="8.785400">
        <ele>167.666841</ele>
        <time>2025-08-16T23:02:24.889Z</time>
      </trkpt>
      <trkpt lat="51.939654" lon="8.785446">
        <ele>168.024193</ele>
        <time>2025-08-16T23:02:28.199Z</time>
      </trkpt>
      <trkpt lat="51.939776" lon="8.785533">
        <ele>168.647103</ele>
        <time>2025-08-16T23:02:33.913Z</time>
      </trkpt>
      <trkpt lat="51.939940" lon="8.785816">
        <ele>169.766293</ele>
        <time>2025-08-16T23:02:44.237Z</time>
      </trkpt>
      <trkpt lat="51.939977" lon="8.785963">
        <ele>170.223819</ele>
        <time>2025-08-16T23:02:48.567Z</time>
      </trkpt>
      <trkpt lat="51.940000" lon="8.786044">
        <ele>170.480789</ele>
        <time>2025-08-16T23:02:50.902Z</time>
      </trkpt>
      <trkpt lat="51.940012" lon="8.786168">
        <ele>170.842471</ele>
        <time>2025-08-16T23:02:54.343Z</time>
      </trkpt>
      <trkpt lat="51.940080" lon="8.786488">
        <ele>171.817794</ele>
        <time>2025-08-16T23:03:03.133Z</time>
      </trkpt>
      <trkpt lat="51.940115" lon="8.786688">
        <ele>172.416863</ele>
        <time>2025-08-16T23:03:08.420Z</time>
      </trkpt>
      <trkpt lat="51.940132" lon="8.786784">
        <ele>172.704673</ele>
        <time>2025-08-16T23:03:10.941Z</time>
      </trkpt>
      <trkpt lat="51.940267" lon="8.787535">
        <ele>174.183469</ele>
        <time>2025-08-16T23:03:30.330Z</time>
      </trkpt>
      <trkpt lat="51.940278" lon="8.787704">
        <ele>174.443193</ele>
        <time>2025-08-16T23:03:34.588Z</time>
      </trkpt>
      <trkpt lat="51.940477" lon="8.787770">
        <ele>174.946744</ele>
        <time>2025-08-16T23:03:42.800Z</time>
      </trkpt>
      <trkpt lat="51.941414" lon="8.788061">
        <ele>177.311870</ele>
        <time>2025-08-16T23:04:14.566Z</time>
      </trkpt>
      <trkpt lat="51.941619" lon="8.788119">
        <ele>177.647393</ele>
        <time>2025-08-16T23:04:19.386Z</time>
      </trkpt>
      <trkpt lat="51.942612" lon="8.788428">
        <ele>172.734908</ele>
        <time>2025-08-16T23:04:35.418Z</time>
      </trkpt>
      <trkpt lat="51.942902" lon="8.788583">
        <ele>171.251427</ele>
        <time>2025-08-16T23:04:39.943Z</time>
      </trkpt>
      <trkpt lat="51.943434" lon="8.789086">
        <ele>167.929395</ele>
        <time>2025-08-16T23:04:49.003Z</time>
      </trkpt>
      <trkpt lat="51.943498" lon="8.789193">
        <ele>167.290910</ele>
        <time>2025-08-16T23:04:50.330Z</time>
      </trkpt>
      <trkpt lat="51.943558" lon="8.789397">
        <ele>166.322929</ele>
        <time>2025-08-16T23:04:52.359Z</time>
      </trkpt>
      <trkpt lat="51.943667" lon="8.789303">
        <ele>165.465332</ele>
        <time>2025-08-16T23:04:54.060Z</time>
      </trkpt>
      <trkpt lat="51.943745" lon="8.789277">
        <ele>164.912128</ele>
        <time>2025-08-16T23:04:55.163Z</time>
      </trkpt>
      <trkpt lat="51.943949" lon="8.789328">
        <ele>163.478167</ele>
        <time>2025-08-16T23:04:58.022Z</time>
      </trkpt>
      <trkpt lat="51.944219" lon="8.789381">
        <ele>161.588739</ele>
        <time>2025-08-16T23:05:01.865Z</time>
      </trkpt>
      <trkpt lat="51.944827" lon="8.789169">
        <ele>157.268369</ele>
        <time>2025-08-16T23:05:11.063Z</time>
      </trkpt>
      <trkpt lat="51.945083" lon="8.789231">
        <ele>155.850858</ele>
        <time>2025-08-16T23:05:15.040Z</time>
      </trkpt>
      <trkpt lat="51.945168" lon="8.789304">
        <ele>155.422133</ele>
        <time>2025-08-16T23:05:16.522Z</time>
      </trkpt>
      <trkpt lat="51.945489" lon="8.789681">
        <ele>153.655594</ele>
        <time>2025-08-16T23:05:22.729Z</time>
      </trkpt>
      <trkpt lat="51.945472" lon="8.789230">
        <ele>152.414032</ele>
        <time>2025-08-16T23:05:28.814Z</time>
      </trkpt>
      <trkpt lat="51.945489" lon="8.789681">
        <ele>151.172470</ele>
        <time>2025-08-16T23:05:34.851Z</time>
      </trkpt>
      <trkpt lat="51.945548" lon="8.789753">
        <ele>150.843362</ele>
        <time>2025-08-16T23:05:35.992Z</time>
      </trkpt>
      <trkpt lat="51.945751" lon="8.790023">
        <ele>149.673200</ele>
        <time>2025-08-16T23:05:40.024Z</time>
      </trkpt>
      <trkpt lat="51.945975" lon="8.790298">
        <ele>148.415314</ele>
        <time>2025-08-16T23:05:44.318Z</time>
      </trkpt>
      <trkpt lat="51.946118" lon="8.790398">
        <ele>147.679122</ele>
        <time>2025-08-16T23:05:46.672Z</time>
      </trkpt>
      <trkpt lat="51.946346" lon="8.790487">
        <ele>146.570447</ele>
        <time>2025-08-16T23:05:50.199Z</time>
      </trkpt>
      <trkpt lat="51.946511" lon="8.790551">
        <ele>145.768394</ele>
        <time>2025-08-16T23:05:52.719Z</time>
      </trkpt>
      <trkpt lat="51.946751" lon="8.790629">
        <ele>144.611206</ele>
        <time>2025-08-16T23:05:56.338Z</time>
      </trkpt>
      <trkpt lat="51.946859" lon="8.790659">
        <ele>144.093186</ele>
        <time>2025-08-16T23:05:57.970Z</time>
      </trkpt>
      <trkpt lat="51.947388" lon="8.790817">
        <ele>141.550213</ele>
        <time>2025-08-16T23:06:06.134Z</time>
      </trkpt>
      <trkpt lat="51.947738" lon="8.791002">
        <ele>139.907210</ele>
        <time>2025-08-16T23:06:11.941Z</time>
      </trkpt>
      <trkpt lat="51.947800" lon="8.791023">
        <ele>139.752453</ele>
        <time>2025-08-16T23:06:12.954Z</time>
      </trkpt>
      <trkpt lat="51.948407" lon="8.791668">
        <ele>137.979507</ele>
        <time>2025-08-16T23:06:24.938Z</time>
      </trkpt>
      <trkpt lat="51.948667" lon="8.791955">
        <ele>137.211125</ele>
        <time>2025-08-16T23:06:30.326Z</time>
      </trkpt>
      <trkpt lat="51.949006" lon="8.792196">
        <ele>136.306782</ele>
        <time>2025-08-16T23:06:37.034Z</time>
      </trkpt>
      <trkpt lat="51.949242" lon="8.792266">
        <ele>135.720583</ele>
        <time>2025-08-16T23:06:41.481Z</time>
      </trkpt>
      <trkpt lat="51.949360" lon="8.792679">
        <ele>135.418881</ele>
        <time>2025-08-16T23:06:46.776Z</time>
      </trkpt>
      <trkpt lat="51.949392" lon="8.792795">
        <ele>135.353839</ele>
        <time>2025-08-16T23:06:48.285Z</time>
      </trkpt>
      <trkpt lat="51.949445" lon="8.792761">
        <ele>135.306516</ele>
        <time>2025-08-16T23:06:49.389Z</time>
      </trkpt>
      <trkpt lat="51.949496" lon="8.792947">
        <ele>135.202330</ele>
        <time>2025-08-16T23:06:51.841Z</time>
      </trkpt>
      <trkpt lat="51.950258" lon="8.792841">
        <ele>134.567292</ele>
        <time>2025-08-16T23:07:07.802Z</time>
      </trkpt>
      <trkpt lat="51.951223" lon="8.792958">
        <ele>133.768144</ele>
        <time>2025-08-16T23:07:28.522Z</time>
      </trkpt>
      <trkpt lat="51.951543" lon="8.792965">
        <ele>133.505639</ele>
        <time>2025-08-16T23:07:35.133Z</time>
      </trkpt>
      <trkpt lat="51.951937" lon="8.792961">
        <ele>133.182452</ele>
        <time>2025-08-16T23:07:43.029Z</time>
      </trkpt>
      <trkpt lat="51.952295" lon="8.792768">
        <ele>132.873015</ele>
        <time>2025-08-16T23:07:50.608Z</time>
      </trkpt>
      <trkpt lat="51.952488" lon="8.792681">
        <ele>132.708710</ele>
        <time>2025-08-16T23:07:54.696Z</time>
      </trkpt>
      <trkpt lat="51.952954" lon="8.792474">
        <ele>132.566140</ele>
        <time>2025-08-16T23:08:04.643Z</time>
      </trkpt>
      <trkpt lat="51.952936" lon="8.792329">
        <ele>132.547960</ele>
        <time>2025-08-16T23:08:06.547Z</time>
      </trkpt>
      <trkpt lat="51.952442" lon="8.790984">
        <ele>132.355513</ele>
        <time>2025-08-16T23:08:28.619Z</time>
      </trkpt>
      <trkpt lat="51.952358" lon="8.790826">
        <ele>132.329866</ele>
        <time>2025-08-16T23:08:31.982Z</time>
      </trkpt>
      <trkpt lat="51.951544" lon="8.789435">
        <ele>131.913859</ele>
        <time>2025-08-16T23:09:00.834Z</time>
      </trkpt>
      <trkpt lat="51.951501" lon="8.789204">
        <ele>131.856761</ele>
        <time>2025-08-16T23:09:04.053Z</time>
      </trkpt>
      <trkpt lat="51.951500" lon="8.789201">
        <ele>131.855954</ele>
        <time>2025-08-16T23:09:04.097Z</time>
      </trkpt>
      <trkpt lat="51.951501" lon="8.789204">
        <ele>131.855147</ele>
        <time>2025-08-16T23:09:04.141Z</time>
      </trkpt>
      <trkpt lat="51.951500" lon="8.789201">
        <ele>131.854340</ele>
        <time>2025-08-16T23:09:04.186Z</time>
      </trkpt>
      <trkpt lat="51.951494" lon="8.789171">
        <ele>131.846877</ele>
        <time>2025-08-16T23:09:04.605Z</time>
      </trkpt>
      <trkpt lat="51.951498" lon="8.788965">
        <ele>131.798109</ele>
        <time>2025-08-16T23:09:07.255Z</time>
      </trkpt>
      <trkpt lat="51.951634" lon="8.788616">
        <ele>131.700406</ele>
        <time>2025-08-16T23:09:12.418Z</time>
      </trkpt>
      <trkpt lat="51.951827" lon="8.788389">
        <ele>131.608889</ele>
        <time>2025-08-16T23:09:17.064Z</time>
      </trkpt>
      <trkpt lat="51.951949" lon="8.788298">
        <ele>131.417053</ele>
        <time>2025-08-16T23:09:19.617Z</time>
      </trkpt>
      <trkpt lat="51.951974" lon="8.788277">
        <ele>131.369326</ele>
        <time>2025-08-16T23:09:20.148Z</time>
      </trkpt>
      <trkpt lat="51.952147" lon="8.788037">
        <ele>130.983444</ele>
        <time>2025-08-16T23:09:24.347Z</time>
      </trkpt>
      <trkpt lat="51.952619" lon="8.786858">
        <ele>129.514477</ele>
        <time>2025-08-16T23:09:39.991Z</time>
      </trkpt>
      <trkpt lat="51.952983" lon="8.785925">
        <ele>128.383958</ele>
        <time>2025-08-16T23:09:53.384Z</time>
      </trkpt>
      <trkpt lat="51.953427" lon="8.786171">
        <ele>127.686641</ele>
        <time>2025-08-16T23:10:02.827Z</time>
      </trkpt>
      <trkpt lat="51.953919" lon="8.786511">
        <ele>126.891836</ele>
        <time>2025-08-16T23:10:13.320Z</time>
      </trkpt>
      <trkpt lat="51.954070" lon="8.786592">
        <ele>126.655462</ele>
        <time>2025-08-16T23:10:16.374Z</time>
      </trkpt>
      <trkpt lat="51.954246" lon="8.786687">
        <ele>126.379784</ele>
        <time>2025-08-16T23:10:19.851Z</time>
      </trkpt>
      <trkpt lat="51.956183" lon="8.787928">
        <ele>121.037919</ele>
        <time>2025-08-16T23:10:53.920Z</time>
      </trkpt>
      <trkpt lat="51.956296" lon="8.787928">
        <ele>120.883024</ele>
        <time>2025-08-16T23:10:55.889Z</time>
      </trkpt>
      <trkpt lat="51.956489" lon="8.788022">
        <ele>120.876952</ele>
        <time>2025-08-16T23:10:59.494Z</time>
      </trkpt>
      <trkpt lat="51.956560" lon="8.788032">
        <ele>120.874805</ele>
        <time>2025-08-16T23:11:00.819Z</time>
      </trkpt>
      <trkpt lat="51.957005" lon="8.787800">
        <ele>120.860720</ele>
        <time>2025-08-16T23:11:11.580Z</time>
      </trkpt>
      <trkpt lat="51.957229" lon="8.788101">
        <ele>120.851956</ele>
        <time>2025-08-16T23:11:18.857Z</time>
      </trkpt>
      <trkpt lat="51.957390" lon="8.788405">
        <ele>120.844512</ele>
        <time>2025-08-16T23:11:25.823Z</time>
      </trkpt>
      <trkpt lat="51.958222" lon="8.789943">
        <ele>120.646640</ele>
        <time>2025-08-16T23:12:00.059Z</time>
      </trkpt>
      <trkpt lat="51.958779" lon="8.790957">
        <ele>120.453792</ele>
        <time>2025-08-16T23:12:16.098Z</time>
      </trkpt>
      <trkpt lat="51.959209" lon="8.791654">
        <ele>119.868962</ele>
        <time>2025-08-16T23:12:26.660Z</time>
      </trkpt>
      <trkpt lat="51.959484" lon="8.791992">
        <ele>119.444303</ele>
        <time>2025-08-16T23:12:32.812Z</time>
      </trkpt>
      <trkpt lat="51.960234" lon="8.793139">
        <ele>118.201883</ele>
        <time>2025-08-16T23:12:52.721Z</time>
      </trkpt>
      <trkpt lat="51.960764" lon="8.793405">
        <ele>118.196813</ele>
        <time>2025-08-16T23:13:04.728Z</time>
      </trkpt>
      <trkpt lat="51.963042" lon="8.795328">
        <ele>118.149488</ele>
        <time>2025-08-16T23:14:04.441Z</time>
      </trkpt>
      <trkpt lat="51.964720" lon="8.796741">
        <ele>117.193698</ele>
        <time>2025-08-16T23:14:42.214Z</time>
      </trkpt>
      <trkpt lat="51.964881" lon="8.796876">
        <ele>117.074708</ele>
        <time>2025-08-16T23:14:45.806Z</time>
      </trkpt>
      <trkpt lat="51.965879" lon="8.797808">
        <ele>116.226451</ele>
        <time>2025-08-16T23:15:09.169Z</time>
      </trkpt>
      <trkpt lat="51.966109" lon="8.798090">
        <ele>116.009807</ele>
        <time>2025-08-16T23:15:15.098Z</time>
      </trkpt>
      <trkpt lat="51.966817" lon="8.799075">
        <ele>114.966543</ele>
        <time>2025-08-16T23:15:33.202Z</time>
      </trkpt>
      <trkpt lat="51.968111" lon="8.801005">
        <ele>112.200291</ele>
        <time>2025-08-16T23:16:04.318Z</time>
      </trkpt>
      <trkpt lat="51.968149" lon="8.801099">
        <ele>112.104636</ele>
        <time>2025-08-16T23:16:05.566Z</time>
      </trkpt>
      <trkpt lat="51.968367" lon="8.801046">
        <ele>111.800227</ele>
        <time>2025-08-16T23:16:09.506Z</time>
      </trkpt>
      <trkpt lat="51.970244" lon="8.801161">
        <ele>109.475277</ele>
        <time>2025-08-16T23:16:45.275Z</time>
      </trkpt>
      <trkpt lat="51.970364" lon="8.801149">
        <ele>109.354078</ele>
        <time>2025-08-16T23:16:47.617Z</time>
      </trkpt>
      <trkpt lat="51.970486" lon="8.801119">
        <ele>109.229689</ele>
        <time>2025-08-16T23:16:50.032Z</time>
      </trkpt>
      <trkpt lat="51.971851" lon="8.800539">
        <ele>107.898843</ele>
        <time>2025-08-16T23:17:17.691Z</time>
      </trkpt>
      <trkpt lat="51.971859" lon="8.800617">
        <ele>107.857461</ele>
        <time>2025-08-16T23:17:18.657Z</time>
      </trkpt>
      <trkpt lat="51.971899" lon="8.800599">
        <ele>107.822200</ele>
        <time>2025-08-16T23:17:19.478Z</time>
      </trkpt>
      <trkpt lat="51.972061" lon="8.801768">
        <ele>107.195141</ele>
        <time>2025-08-16T23:17:34.497Z</time>
      </trkpt>
      <trkpt lat="51.972113" lon="8.802297">
        <ele>106.914798</ele>
        <time>2025-08-16T23:17:41.279Z</time>
      </trkpt>
      <trkpt lat="51.972127" lon="8.802565">
        <ele>106.821438</ele>
        <time>2025-08-16T23:17:44.711Z</time>
      </trkpt>
      <trkpt lat="51.972161" lon="8.802977">
        <ele>106.722056</ele>
        <time>2025-08-16T23:17:49.996Z</time>
      </trkpt>
      <trkpt lat="51.972175" lon="8.803158">
        <ele>106.678443</ele>
        <time>2025-08-16T23:17:52.303Z</time>
      </trkpt>
      <trkpt lat="51.972197" lon="8.803424">
        <ele>106.614277</ele>
        <time>2025-08-16T23:17:55.708Z</time>
      </trkpt>
      <trkpt lat="51.972274" lon="8.804372">
        <ele>106.385667</ele>
        <time>2025-08-16T23:18:08.186Z</time>
      </trkpt>
      <trkpt lat="51.972288" lon="8.804540">
        <ele>106.345136</ele>
        <time>2025-08-16T23:18:10.540Z</time>
      </trkpt>
      <trkpt lat="51.972325" lon="8.804967">
        <ele>106.242044</ele>
        <time>2025-08-16T23:18:16.794Z</time>
      </trkpt>
      <trkpt lat="51.972375" lon="8.805521">
        <ele>106.257691</ele>
        <time>2025-08-16T23:18:25.296Z</time>
      </trkpt>
      <trkpt lat="51.972414" lon="8.805947">
        <ele>106.434193</ele>
        <time>2025-08-16T23:18:32.038Z</time>
      </trkpt>
      <trkpt lat="51.972496" lon="8.806847">
        <ele>106.807044</ele>
        <time>2025-08-16T23:18:47.119Z</time>
      </trkpt>
      <trkpt lat="51.972511" lon="8.807007">
        <ele>106.873371</ele>
        <time>2025-08-16T23:18:50.485Z</time>
      </trkpt>
      <trkpt lat="51.972591" lon="8.807606">
        <ele>107.124556</ele>
        <time>2025-08-16T23:19:02.937Z</time>
      </trkpt>
      <trkpt lat="51.972780" lon="8.807886">
        <ele>107.294780</ele>
        <time>2025-08-16T23:19:10.929Z</time>
      </trkpt>
      <trkpt lat="51.972843" lon="8.808166">
        <ele>107.484879</ele>
        <time>2025-08-16T23:19:16.529Z</time>
      </trkpt>
      <trkpt lat="51.973050" lon="8.808086">
        <ele>107.794772</ele>
        <time>2025-08-16T23:19:21.441Z</time>
      </trkpt>
      <trkpt lat="51.973402" lon="8.807938">
        <ele>108.324329</ele>
        <time>2025-08-16T23:19:30.352Z</time>
      </trkpt>
      <trkpt lat="51.973685" lon="8.807861">
        <ele>108.742229</ele>
        <time>2025-08-16T23:19:37.942Z</time>
      </trkpt>
      <trkpt lat="51.974035" lon="8.807754">
        <ele>109.260916</ele>
        <time>2025-08-16T23:19:47.886Z</time>
      </trkpt>
      <trkpt lat="51.974486" lon="8.809027">
        <ele>111.573956</ele>
        <time>2025-08-16T23:20:17.841Z</time>
      </trkpt>
      <trkpt lat="51.975108" lon="8.813109">
        <ele>121.185934</ele>
        <time>2025-08-16T23:22:00.691Z</time>
      </trkpt>
      <trkpt lat="51.975259" lon="8.813722">
        <ele>122.617236</ele>
        <time>2025-08-16T23:22:14.270Z</time>
      </trkpt>
      <trkpt lat="51.975912" lon="8.816416">
        <ele>124.790502</ele>
        <time>2025-08-16T23:23:01.213Z</time>
      </trkpt>
      <trkpt lat="51.976213" lon="8.817713">
        <ele>125.124798</ele>
        <time>2025-08-16T23:23:19.530Z</time>
      </trkpt>
      <trkpt lat="51.976426" lon="8.818091">
        <ele>125.193353</ele>
        <time>2025-08-16T23:23:26.280Z</time>
      </trkpt>
      <trkpt lat="51.976805" lon="8.818762">
        <ele>125.315178</ele>
        <time>2025-08-16T23:23:38.822Z</time>
      </trkpt>
      <trkpt lat="51.976845" lon="8.818822">
        <ele>125.327009</ele>
        <time>2025-08-16T23:23:40.894Z</time>
      </trkpt>
      <trkpt lat="51.975901" lon="8.820397">
        <ele>127.143796</ele>
        <time>2025-08-16T23:24:17.670Z</time>
      </trkpt>
      <trkpt lat="51.975016" lon="8.821988">
        <ele>129.593482</ele>
        <time>2025-08-16T23:24:59.331Z</time>
      </trkpt>
      <trkpt lat="51.975003" lon="8.822051">
        <ele>129.681663</ele>
        <time>2025-08-16T23:25:00.638Z</time>
      </trkpt>
      <trkpt lat="51.974948" lon="8.822136">
        <ele>129.845276</ele>
        <time>2025-08-16T23:25:03.137Z</time>
      </trkpt>
      <trkpt lat="51.974889" lon="8.822239">
        <ele>130.031950</ele>
        <time>2025-08-16T23:25:05.933Z</time>
      </trkpt>
      <trkpt lat="51.974497" lon="8.822873">
        <ele>131.224166</ele>
        <time>2025-08-16T23:25:23.567Z</time>
      </trkpt>
      <trkpt lat="51.974030" lon="8.823474">
        <ele>132.163014</ele>
        <time>2025-08-16T23:25:41.457Z</time>
      </trkpt>
      <trkpt lat="51.972944" lon="8.825264">
        <ele>132.970683</ele>
        <time>2025-08-16T23:26:19.089Z</time>
      </trkpt>
      <trkpt lat="51.971366" lon="8.827874">
        <ele>129.382833</ele>
        <time>2025-08-16T23:26:59.911Z</time>
      </trkpt>
      <trkpt lat="51.971866" lon="8.828642">
        <ele>127.665172</ele>
        <time>2025-08-16T23:27:11.529Z</time>
      </trkpt>
      <trkpt lat="51.972668" lon="8.829915">
        <ele>125.135080</ele>
        <time>2025-08-16T23:27:29.978Z</time>
      </trkpt>
      <trkpt lat="51.972808" lon="8.830030">
        <ele>124.842566</ele>
        <time>2025-08-16T23:27:32.573Z</time>
      </trkpt>
      <trkpt lat="51.973524" lon="8.829965">
        <ele>123.505655</ele>
        <time>2025-08-16T23:27:45.155Z</time>
      </trkpt>
      <trkpt lat="51.973702" lon="8.830014">
        <ele>123.169075</ele>
        <time>2025-08-16T23:27:48.670Z</time>
      </trkpt>
      <trkpt lat="51.973807" lon="8.830116">
        <ele>122.940953</ele>
        <time>2025-08-16T23:27:51.182Z</time>
      </trkpt>
      <trkpt lat="51.974409" lon="8.830843">
        <ele>122.311568</ele>
        <time>2025-08-16T23:28:07.201Z</time>
      </trkpt>
      <trkpt lat="51.974491" lon="8.831003">
        <ele>122.250393</ele>
        <time>2025-08-16T23:28:09.969Z</time>
      </trkpt>
      <trkpt lat="51.974555" lon="8.831282">
        <ele>122.162887</ele>
        <time>2025-08-16T23:28:13.924Z</time>
      </trkpt>
      <trkpt lat="51.974593" lon="8.831926">
        <ele>121.972734</ele>
        <time>2025-08-16T23:28:22.391Z</time>
      </trkpt>
      <trkpt lat="51.974634" lon="8.832064">
        <ele>121.927702</ele>
        <time>2025-08-16T23:28:24.364Z</time>
      </trkpt>
      <trkpt lat="51.974692" lon="8.832165">
        <ele>121.887117</ele>
        <time>2025-08-16T23:28:26.124Z</time>
      </trkpt>
      <trkpt lat="51.975686" lon="8.832942">
        <ele>120.679153</ele>
        <time>2025-08-16T23:28:47.674Z</time>
      </trkpt>
      <trkpt lat="51.976674" lon="8.833946">
        <ele>118.871910</ele>
        <time>2025-08-16T23:29:08.770Z</time>
      </trkpt>
      <trkpt lat="51.976918" lon="8.834230">
        <ele>117.962266</ele>
        <time>2025-08-16T23:29:13.979Z</time>
      </trkpt>
      <trkpt lat="51.976970" lon="8.834326">
        <ele>117.723683</ele>
        <time>2025-08-16T23:29:15.292Z</time>
      </trkpt>
      <trkpt lat="51.977246" lon="8.835434">
        <ele>115.493157</ele>
        <time>2025-08-16T23:29:27.297Z</time>
      </trkpt>
      <trkpt lat="51.977308" lon="8.835562">
        <ele>115.189263</ele>
        <time>2025-08-16T23:29:28.901Z</time>
      </trkpt>
      <trkpt lat="51.977604" lon="8.835767">
        <ele>114.214245</ele>
        <time>2025-08-16T23:29:34.020Z</time>
      </trkpt>
      <trkpt lat="51.978323" lon="8.836167">
        <ele>111.840235</ele>
        <time>2025-08-16T23:29:45.976Z</time>
      </trkpt>
      <trkpt lat="51.979157" lon="8.836632">
        <ele>109.066306</ele>
        <time>2025-08-16T23:30:00.177Z</time>
      </trkpt>
      <trkpt lat="51.979725" lon="8.837059">
        <ele>108.235165</ele>
        <time>2025-08-16T23:30:11.247Z</time>
      </trkpt>
      <trkpt lat="51.979823" lon="8.837139">
        <ele>108.275831</ele>
        <time>2025-08-16T23:30:13.407Z</time>
      </trkpt>
      <trkpt lat="51.980234" lon="8.837459">
        <ele>108.444815</ele>
        <time>2025-08-16T23:30:23.778Z</time>
      </trkpt>
      <trkpt lat="51.980027" lon="8.838044">
        <ele>108.598870</ele>
        <time>2025-08-16T23:30:35.135Z</time>
      </trkpt>
      <trkpt lat="51.979917" lon="8.838415">
        <ele>108.692891</ele>
        <time>2025-08-16T23:30:42.834Z</time>
      </trkpt>
      <trkpt lat="51.979852" lon="8.838946">
        <ele>108.996041</ele>
        <time>2025-08-16T23:30:53.012Z</time>
      </trkpt>
      <trkpt lat="51.979912" lon="8.840208">
        <ele>110.788916</ele>
        <time>2025-08-16T23:31:17.805Z</time>
      </trkpt>
      <trkpt lat="51.979962" lon="8.840617">
        <ele>111.379543</ele>
        <time>2025-08-16T23:31:25.903Z</time>
      </trkpt>
      <trkpt lat="51.980211" lon="8.841587">
        <ele>112.868040</ele>
        <time>2025-08-16T23:31:46.295Z</time>
      </trkpt>
      <trkpt lat="51.980236" lon="8.841677">
        <ele>113.022149</ele>
        <time>2025-08-16T23:31:48.264Z</time>
      </trkpt>
      <trkpt lat="51.980387" lon="8.842435">
        <ele>114.330217</ele>
        <time>2025-08-16T23:32:04.182Z</time>
      </trkpt>
      <trkpt lat="51.980466" lon="8.843007">
        <ele>115.292727</ele>
        <time>2025-08-16T23:32:15.955Z</time>
      </trkpt>
      <trkpt lat="51.981220" lon="8.843343">
        <ele>117.377064</ele>
        <time>2025-08-16T23:32:43.165Z</time>
      </trkpt>
      <trkpt lat="51.981325" lon="8.843201">
        <ele>117.735010</ele>
        <time>2025-08-16T23:32:47.751Z</time>
      </trkpt>
      <trkpt lat="51.981373" lon="8.843146">
        <ele>117.856501</ele>
        <time>2025-08-16T23:32:49.665Z</time>
      </trkpt>
      <trkpt lat="51.981504" lon="8.843111">
        <ele>118.131044</ele>
        <time>2025-08-16T23:32:54.051Z</time>
      </trkpt>
      <trkpt lat="51.981930" lon="8.843443">
        <ele>119.108215</ele>
        <time>2025-08-16T23:33:09.294Z</time>
      </trkpt>
      <trkpt lat="51.982031" lon="8.843460">
        <ele>119.318195</ele>
        <time>2025-08-16T23:33:12.579Z</time>
      </trkpt>
      <trkpt lat="51.982330" lon="8.843745">
        <ele>120.035184</ele>
        <time>2025-08-16T23:33:23.412Z</time>
      </trkpt>
      <trkpt lat="51.982497" lon="8.843751">
        <ele>120.380614</ele>
        <time>2025-08-16T23:33:28.615Z</time>
      </trkpt>
      <trkpt lat="51.982526" lon="8.843830">
        <ele>120.497748</ele>
        <time>2025-08-16T23:33:30.313Z</time>
      </trkpt>
      <trkpt lat="51.982965" lon="8.843595">
        <ele>121.434895</ele>
        <time>2025-08-16T23:33:49.946Z</time>
      </trkpt>
      <trkpt lat="51.983498" lon="8.843397">
        <ele>121.560956</ele>
        <time>2025-08-16T23:34:07.189Z</time>
      </trkpt>
      <trkpt lat="51.983696" lon="8.843377">
        <ele>121.606694</ele>
        <time>2025-08-16T23:34:13.321Z</time>
      </trkpt>
      <trkpt lat="51.984093" lon="8.843337">
        <ele>121.698399</ele>
        <time>2025-08-16T23:34:25.143Z</time>
      </trkpt>
      <trkpt lat="51.984028" lon="8.844024">
        <ele>121.797093</ele>
        <time>2025-08-16T23:34:34.350Z</time>
      </trkpt>
      <trkpt lat="51.984014" lon="8.844175">
        <ele>121.818776</ele>
        <time>2025-08-16T23:34:36.322Z</time>
      </trkpt>
      <trkpt lat="51.985477" lon="8.844099">
        <ele>120.749562</ele>
        <time>2025-08-16T23:35:09.507Z</time>
      </trkpt>
      <trkpt lat="51.985501" lon="8.844157">
        <ele>120.714320</ele>
        <time>2025-08-16T23:35:10.417Z</time>
      </trkpt>
      <trkpt lat="51.985720" lon="8.844098">
        <ele>120.532519</ele>
        <time>2025-08-16T23:35:14.540Z</time>
      </trkpt>
      <trkpt lat="51.987001" lon="8.843303">
        <ele>119.274653</ele>
        <time>2025-08-16T23:35:39.811Z</time>
      </trkpt>
      <trkpt lat="51.988254" lon="8.842513">
        <ele>119.215700</ele>
        <time>2025-08-16T23:36:09.068Z</time>
      </trkpt>
      <trkpt lat="51.988970" lon="8.845294">
        <ele>120.840075</ele>
        <time>2025-08-16T23:37:00.052Z</time>
      </trkpt>
      <trkpt lat="51.989624" lon="8.847836">
        <ele>122.378025</ele>
        <time>2025-08-16T23:37:44.086Z</time>
      </trkpt>
      <trkpt lat="51.989711" lon="8.847795">
        <ele>122.435251</ele>
        <time>2025-08-16T23:37:46.288Z</time>
      </trkpt>
      <trkpt lat="51.990649" lon="8.848592">
        <ele>123.099191</ele>
        <time>2025-08-16T23:38:11.765Z</time>
      </trkpt>
      <trkpt lat="51.993484" lon="8.850999">
        <ele>124.470711</ele>
        <time>2025-08-16T23:39:28.824Z</time>
      </trkpt>
      <trkpt lat="51.996304" lon="8.850258">
        <ele>124.100300</ele>
        <time>2025-08-16T23:40:33.810Z</time>
      </trkpt>
      <trkpt lat="51.996337" lon="8.850245">
        <ele>124.065308</ele>
        <time>2025-08-16T23:40:34.463Z</time>
      </trkpt>
      <trkpt lat="51.998788" lon="8.849126">
        <ele>120.661080</ele>
        <time>2025-08-16T23:41:19.917Z</time>
      </trkpt>
      <trkpt lat="51.999036" lon="8.849023">
        <ele>120.261432</ele>
        <time>2025-08-16T23:41:24.893Z</time>
      </trkpt>
      <trkpt lat="51.999693" lon="8.848959">
        <ele>119.622675</ele>
        <time>2025-08-16T23:41:38.107Z</time>
      </trkpt>
      <trkpt lat="51.999905" lon="8.848975">
        <ele>119.432087</ele>
        <time>2025-08-16T23:41:42.536Z</time>
      </trkpt>
      <trkpt lat="52.001071" lon="8.849411">
        <ele>118.316228</ele>
        <time>2025-08-16T23:42:05.827Z</time>
      </trkpt>
      <trkpt lat="52.001369" lon="8.849476">
        <ele>117.982868</ele>
        <time>2025-08-16T23:42:11.413Z</time>
      </trkpt>
      <trkpt lat="52.001643" lon="8.849444">
        <ele>117.678298</ele>
        <time>2025-08-16T23:42:16.574Z</time>
      </trkpt>
      <trkpt lat="52.001939" lon="8.849281">
        <ele>117.331775</ele>
        <time>2025-08-16T23:42:22.537Z</time>
      </trkpt>
      <trkpt lat="52.002920" lon="8.848512">
        <ele>115.812346</ele>
        <time>2025-08-16T23:42:43.431Z</time>
      </trkpt>
      <trkpt lat="52.003462" lon="8.848176">
        <ele>114.686728</ele>
        <time>2025-08-16T23:42:54.026Z</time>
      </trkpt>
      <trkpt lat="52.003898" lon="8.848055">
        <ele>113.828506</ele>
        <time>2025-08-16T23:43:01.635Z</time>
      </trkpt>
      <trkpt lat="52.005031" lon="8.847588">
        <ele>111.025469</ele>
        <time>2025-08-16T23:43:20.971Z</time>
      </trkpt>
      <trkpt lat="52.006473" lon="8.847110">
        <ele>107.417276</ele>
        <time>2025-08-16T23:43:46.041Z</time>
      </trkpt>
      <trkpt lat="52.007484" lon="8.846891">
        <ele>105.359572</ele>
        <time>2025-08-16T23:44:03.957Z</time>
      </trkpt>
      <trkpt lat="52.007906" lon="8.846858">
        <ele>104.578730</ele>
        <time>2025-08-16T23:44:11.527Z</time>
      </trkpt>
      <trkpt lat="52.009148" lon="8.846906">
        <ele>103.124039</ele>
        <time>2025-08-16T23:44:34.649Z</time>
      </trkpt>
      <trkpt lat="52.009213" lon="8.846873">
        <ele>103.044300</ele>
        <time>2025-08-16T23:44:35.983Z</time>
      </trkpt>
      <trkpt lat="52.009282" lon="8.846857">
        <ele>102.962688</ele>
        <time>2025-08-16T23:44:37.340Z</time>
      </trkpt>
      <trkpt lat="52.009686" lon="8.846767">
        <ele>102.540999</ele>
        <time>2025-08-16T23:44:45.686Z</time>
      </trkpt>
      <trkpt lat="52.009790" lon="8.846740">
        <ele>102.497334</ele>
        <time>2025-08-16T23:44:47.915Z</time>
      </trkpt>
      <trkpt lat="52.010197" lon="8.846588">
        <ele>102.324193</ele>
        <time>2025-08-16T23:44:56.938Z</time>
      </trkpt>
      <trkpt lat="52.009790" lon="8.846740">
        <ele>102.151052</ele>
        <time>2025-08-16T23:45:05.877Z</time>
      </trkpt>
      <trkpt lat="52.009686" lon="8.846767">
        <ele>102.107387</ele>
        <time>2025-08-16T23:45:08.094Z</time>
      </trkpt>
      <trkpt lat="52.009282" lon="8.846857">
        <ele>101.938323</ele>
        <time>2025-08-16T23:45:16.623Z</time>
      </trkpt>
      <trkpt lat="52.009368" lon="8.847165">
        <ele>101.852013</ele>
        <time>2025-08-16T23:45:21.070Z</time>
      </trkpt>
      <trkpt lat="52.010052" lon="8.849132">
        <ele>100.769688</ele>
        <time>2025-08-16T23:45:48.321Z</time>
      </trkpt>
      <trkpt lat="52.010479" lon="8.850022">
        <ele>100.232848</ele>
        <time>2025-08-16T23:46:01.953Z</time>
      </trkpt>
      <trkpt lat="52.010968" lon="8.850851">
        <ele>99.720396</ele>
        <time>2025-08-16T23:46:15.908Z</time>
      </trkpt>
      <trkpt lat="52.011587" lon="8.851720">
        <ele>99.127218</ele>
        <time>2025-08-16T23:46:32.677Z</time>
      </trkpt>
      <trkpt lat="52.011980" lon="8.852277">
        <ele>98.685337</ele>
        <time>2025-08-16T23:46:42.939Z</time>
      </trkpt>
      <trkpt lat="52.012465" lon="8.851807">
        <ele>98.199480</ele>
        <time>2025-08-16T23:46:53.913Z</time>
      </trkpt>
      <trkpt lat="52.012520" lon="8.851850">
        <ele>98.146967</ele>
        <time>2025-08-16T23:46:55.123Z</time>
      </trkpt>
      <trkpt lat="52.012907" lon="8.851916">
        <ele>97.812182</ele>
        <time>2025-08-16T23:47:02.651Z</time>
      </trkpt>
      <trkpt lat="52.012988" lon="8.851984">
        <ele>97.733740</ele>
        <time>2025-08-16T23:47:04.410Z</time>
      </trkpt>
      <trkpt lat="52.013239" lon="8.852347">
        <ele>97.502451</ele>
        <time>2025-08-16T23:47:10.857Z</time>
      </trkpt>
      <trkpt lat="52.013345" lon="8.852454">
        <ele>97.458035</ele>
        <time>2025-08-16T23:47:13.287Z</time>
      </trkpt>
      <trkpt lat="52.013553" lon="8.852524">
        <ele>97.382432</ele>
        <time>2025-08-16T23:47:17.518Z</time>
      </trkpt>
      <trkpt lat="52.013893" lon="8.852291">
        <ele>97.251095</ele>
        <time>2025-08-16T23:47:25.323Z</time>
      </trkpt>
      <trkpt lat="52.014234" lon="8.851863">
        <ele>97.097730</ele>
        <time>2025-08-16T23:47:34.947Z</time>
      </trkpt>
      <trkpt lat="52.014257" lon="8.851808">
        <ele>97.083164</ele>
        <time>2025-08-16T23:47:35.886Z</time>
      </trkpt>
      <trkpt lat="52.014604" lon="8.851655">
        <ele>96.955193</ele>
        <time>2025-08-16T23:47:43.973Z</time>
      </trkpt>
      <trkpt lat="52.014993" lon="8.851556">
        <ele>96.681303</ele>
        <time>2025-08-16T23:47:52.390Z</time>
      </trkpt>
      <trkpt lat="52.015326" lon="8.851405">
        <ele>96.371272</ele>
        <time>2025-08-16T23:47:59.559Z</time>
      </trkpt>
      <trkpt lat="52.015549" lon="8.851335">
        <ele>96.167598</ele>
        <time>2025-08-16T23:48:04.175Z</time>
      </trkpt>
      <trkpt lat="52.016073" lon="8.851276">
        <ele>95.696570</ele>
        <time>2025-08-16T23:48:14.307Z</time>
      </trkpt>
      <trkpt lat="52.016830" lon="8.851272">
        <ele>94.946035</ele>
        <time>2025-08-16T23:48:27.983Z</time>
      </trkpt>
      <trkpt lat="52.016948" lon="8.851505">
        <ele>94.735678</ele>
        <time>2025-08-16T23:48:31.287Z</time>
      </trkpt>
      <trkpt lat="52.017086" lon="8.851965">
        <ele>94.378928</ele>
        <time>2025-08-16T23:48:36.942Z</time>
      </trkpt>
      <trkpt lat="52.017178" lon="8.852191">
        <ele>94.190030</ele>
        <time>2025-08-16T23:48:39.939Z</time>
      </trkpt>
      <trkpt lat="52.017270" lon="8.852352">
        <ele>94.036872</ele>
        <time>2025-08-16T23:48:42.450Z</time>
      </trkpt>
      <trkpt lat="52.017738" lon="8.852831">
        <ele>93.410344</ele>
        <time>2025-08-16T23:48:53.414Z</time>
      </trkpt>
      <trkpt lat="52.017888" lon="8.853010">
        <ele>93.290624</ele>
        <time>2025-08-16T23:48:57.327Z</time>
      </trkpt>
      <trkpt lat="52.018005" lon="8.853211">
        <ele>93.428139</ele>
        <time>2025-08-16T23:49:01.056Z</time>
      </trkpt>
      <trkpt lat="52.018160" lon="8.853869">
        <ele>93.778331</ele>
        <time>2025-08-16T23:49:11.663Z</time>
      </trkpt>
      <trkpt lat="52.018172" lon="8.853938">
        <ele>93.813970</ele>
        <time>2025-08-16T23:49:12.823Z</time>
      </trkpt>
      <trkpt lat="52.018229" lon="8.854796">
        <ele>94.242906</ele>
        <time>2025-08-16T23:49:27.690Z</time>
      </trkpt>
      <trkpt lat="52.018224" lon="8.855332">
        <ele>94.509349</ele>
        <time>2025-08-16T23:49:37.336Z</time>
      </trkpt>
      <trkpt lat="52.018271" lon="8.855680">
        <ele>94.686435</ele>
        <time>2025-08-16T23:49:43.299Z</time>
      </trkpt>
      <trkpt lat="52.018453" lon="8.856265">
        <ele>94.612805</ele>
        <time>2025-08-16T23:49:53.493Z</time>
      </trkpt>
      <trkpt lat="52.018710" lon="8.856889">
        <ele>94.500206</ele>
        <time>2025-08-16T23:50:04.248Z</time>
      </trkpt>
      <trkpt lat="52.018835" lon="8.857052">
        <ele>94.461151</ele>
        <time>2025-08-16T23:50:07.702Z</time>
      </trkpt>
      <trkpt lat="52.018913" lon="8.857078">
        <ele>94.441748</ele>
        <time>2025-08-16T23:50:09.353Z</time>
      </trkpt>
      <trkpt lat="52.021382" lon="8.857139">
        <ele>91.808213</ele>
        <time>2025-08-16T23:50:55.418Z</time>
      </trkpt>
      <trkpt lat="52.021522" lon="8.857245">
        <ele>91.585415</ele>
        <time>2025-08-16T23:50:58.142Z</time>
      </trkpt>
      <trkpt lat="52.021866" lon="8.857691">
        <ele>90.943216</ele>
        <time>2025-08-16T23:51:05.826Z</time>
      </trkpt>
      <trkpt lat="52.022165" lon="8.857761">
        <ele>90.502375</ele>
        <time>2025-08-16T23:51:11.282Z</time>
      </trkpt>
      <trkpt lat="52.022869" lon="8.857943">
        <ele>89.462096</ele>
        <time>2025-08-16T23:51:24.478Z</time>
      </trkpt>
      <trkpt lat="52.023118" lon="8.857834">
        <ele>89.122809</ele>
        <time>2025-08-16T23:51:33.053Z</time>
      </trkpt>
      <trkpt lat="52.023295" lon="8.857775">
        <ele>89.155238</ele>
        <time>2025-08-16T23:51:36.577Z</time>
      </trkpt>
      <trkpt lat="52.023923" lon="8.857686">
        <ele>89.268379</ele>
        <time>2025-08-16T23:51:49.923Z</time>
      </trkpt>
      <trkpt lat="52.024716" lon="8.857643">
        <ele>89.410786</ele>
        <time>2025-08-16T23:52:09.303Z</time>
      </trkpt>
      <trkpt lat="52.024728" lon="8.857641">
        <ele>89.412951</ele>
        <time>2025-08-16T23:52:09.638Z</time>
      </trkpt>
      <trkpt lat="52.025111" lon="8.857572">
        <ele>89.803552</ele>
        <time>2025-08-16T23:52:20.303Z</time>
      </trkpt>
      <trkpt lat="52.025242" lon="8.857558">
        <ele>90.013942</ele>
        <time>2025-08-16T23:52:24.139Z</time>
      </trkpt>
      <trkpt lat="52.025958" lon="8.857468">
        <ele>91.164806</ele>
        <time>2025-08-16T23:52:45.743Z</time>
      </trkpt>
      <trkpt lat="52.026086" lon="8.857528">
        <ele>91.378297</ele>
        <time>2025-08-16T23:52:49.803Z</time>
      </trkpt>
      <trkpt lat="52.026170" lon="8.857847">
        <ele>91.720445</ele>
        <time>2025-08-16T23:52:56.139Z</time>
      </trkpt>
      <trkpt lat="52.026263" lon="8.859241">
        <ele>92.560736</ele>
        <time>2025-08-16T23:53:20.235Z</time>
      </trkpt>
      <trkpt lat="52.026291" lon="8.859989">
        <ele>92.785264</ele>
        <time>2025-08-16T23:53:31.106Z</time>
      </trkpt>
      <trkpt lat="52.026274" lon="8.861198">
        <ele>93.147595</ele>
        <time>2025-08-16T23:53:47.579Z</time>
      </trkpt>
      <trkpt lat="52.026258" lon="8.862304">
        <ele>93.317125</ele>
        <time>2025-08-16T23:54:02.530Z</time>
      </trkpt>
      <trkpt lat="52.026306" lon="8.862981">
        <ele>93.402882</ele>
        <time>2025-08-16T23:54:12.137Z</time>
      </trkpt>
      <trkpt lat="52.026519" lon="8.864529">
        <ele>93.501552</ele>
        <time>2025-08-16T23:54:35.754Z</time>
      </trkpt>
      <trkpt lat="52.026601" lon="8.865171">
        <ele>93.344599</ele>
        <time>2025-08-16T23:54:45.194Z</time>
      </trkpt>
      <trkpt lat="52.026592" lon="8.865806">
        <ele>93.192558</ele>
        <time>2025-08-16T23:54:53.658Z</time>
      </trkpt>
      <trkpt lat="52.026582" lon="8.866146">
        <ele>93.111078</ele>
        <time>2025-08-16T23:54:57.975Z</time>
      </trkpt>
      <trkpt lat="52.025615" lon="8.866152">
        <ele>92.388540</ele>
        <time>2025-08-16T23:55:17.077Z</time>
      </trkpt>
      <trkpt lat="52.025144" lon="8.866194">
        <ele>91.727505</ele>
        <time>2025-08-16T23:55:25.903Z</time>
      </trkpt>
      <trkpt lat="52.024903" lon="8.866225">
        <ele>91.388720</ele>
        <time>2025-08-16T23:55:30.460Z</time>
      </trkpt>
      <trkpt lat="52.024730" lon="8.866282">
        <ele>91.141352</ele>
        <time>2025-08-16T23:55:33.817Z</time>
      </trkpt>
      <trkpt lat="52.024669" lon="8.866323">
        <ele>91.048847</ele>
        <time>2025-08-16T23:55:35.078Z</time>
      </trkpt>
      <trkpt lat="52.024463" lon="8.866481">
        <ele>90.729631</ele>
        <time>2025-08-16T23:55:39.487Z</time>
      </trkpt>
      <trkpt lat="52.024308" lon="8.866666">
        <ele>90.460134</ele>
        <time>2025-08-16T23:55:43.284Z</time>
      </trkpt>
      <trkpt lat="52.024171" lon="8.866899">
        <ele>90.321094</ele>
        <time>2025-08-16T23:55:47.286Z</time>
      </trkpt>
      <trkpt lat="52.024063" lon="8.867157">
        <ele>90.278209</ele>
        <time>2025-08-16T23:55:51.246Z</time>
      </trkpt>
      <trkpt lat="52.023992" lon="8.867400">
        <ele>90.241238</ele>
        <time>2025-08-16T23:55:54.758Z</time>
      </trkpt>
      <trkpt lat="52.023730" lon="8.868635">
        <ele>90.061698</ele>
        <time>2025-08-16T23:56:12.972Z</time>
      </trkpt>
      <trkpt lat="52.023648" lon="8.869033">
        <ele>90.004013</ele>
        <time>2025-08-16T23:56:19.255Z</time>
      </trkpt>
      <trkpt lat="52.023323" lon="8.871864">
        <ele>90.530237</ele>
        <time>2025-08-16T23:57:03.571Z</time>
      </trkpt>
      <trkpt lat="52.023258" lon="8.872499">
        <ele>90.662684</ele>
        <time>2025-08-16T23:57:13.087Z</time>
      </trkpt>
      <trkpt lat="52.023209" lon="8.873318">
        <ele>90.761437</ele>
        <time>2025-08-16T23:57:25.127Z</time>
      </trkpt>
      <trkpt lat="52.023081" lon="8.876352">
        <ele>91.306961</ele>
        <time>2025-08-16T23:58:09.724Z</time>
      </trkpt>
      <trkpt lat="52.023076" lon="8.877245">
        <ele>91.558468</ele>
        <time>2025-08-16T23:58:23.443Z</time>
      </trkpt>
      <trkpt lat="52.023073" lon="8.877880">
        <ele>91.737309</ele>
        <time>2025-08-16T23:58:33.369Z</time>
      </trkpt>
      <trkpt lat="52.023077" lon="8.878018">
        <ele>91.776217</ele>
        <time>2025-08-16T23:58:35.667Z</time>
      </trkpt>
      <trkpt lat="52.023162" lon="8.879956">
        <ele>93.136332</ele>
        <time>2025-08-16T23:59:08.814Z</time>
      </trkpt>
      <trkpt lat="52.023154" lon="8.880148">
        <ele>93.277280</ele>
        <time>2025-08-16T23:59:12.114Z</time>
      </trkpt>
      <trkpt lat="52.023060" lon="8.880483">
        <ele>93.546951</ele>
        <time>2025-08-16T23:59:18.419Z</time>
      </trkpt>
      <trkpt lat="52.022951" lon="8.880604">
        <ele>93.704071</ele>
        <time>2025-08-16T23:59:22.068Z</time>
      </trkpt>
      <trkpt lat="52.022673" lon="8.880847">
        <ele>94.098087</ele>
        <time>2025-08-16T23:59:31.087Z</time>
      </trkpt>
      <trkpt lat="52.022455" lon="8.881022">
        <ele>94.430401</ele>
        <time>2025-08-16T23:59:38.222Z</time>
      </trkpt>
      <trkpt lat="52.021999" lon="8.881291">
        <ele>95.093418</ele>
        <time>2025-08-16T23:59:53.012Z</time>
      </trkpt>
      <trkpt lat="52.021880" lon="8.881367">
        <ele>95.268167</ele>
        <time>2025-08-16T23:59:56.886Z</time>
      </trkpt>
      <trkpt lat="52.021902" lon="8.881580">
        <ele>95.449811</ele>
        <time>2025-08-17T00:00:00.637Z</time>
      </trkpt>
      <trkpt lat="52.021980" lon="8.882209">
        <ele>95.989450</ele>
        <time>2025-08-17T00:00:11.460Z</time>
      </trkpt>
      <trkpt lat="52.022035" lon="8.882654">
        <ele>96.371180</ele>
        <time>2025-08-17T00:00:18.962Z</time>
      </trkpt>
      <trkpt lat="52.022059" lon="8.882878">
        <ele>96.403753</ele>
        <time>2025-08-17T00:00:22.711Z</time>
      </trkpt>
      <trkpt lat="52.022105" lon="8.883304">
        <ele>96.376888</ele>
        <time>2025-08-17T00:00:29.341Z</time>
      </trkpt>
      <trkpt lat="52.022134" lon="8.883560">
        <ele>96.360719</ele>
        <time>2025-08-17T00:00:33.001Z</time>
      </trkpt>
      <trkpt lat="52.022211" lon="8.884253">
        <ele>96.316979</ele>
        <time>2025-08-17T00:00:42.197Z</time>
      </trkpt>
      <trkpt lat="52.022255" lon="8.884645">
        <ele>96.292228</ele>
        <time>2025-08-17T00:00:47.182Z</time>
      </trkpt>
      <trkpt lat="52.022318" lon="8.885212">
        <ele>96.256440</ele>
        <time>2025-08-17T00:00:54.281Z</time>
      </trkpt>
      <trkpt lat="52.022445" lon="8.886378">
        <ele>96.327637</ele>
        <time>2025-08-17T00:01:08.795Z</time>
      </trkpt>
      <trkpt lat="52.022509" lon="8.886958">
        <ele>96.396529</ele>
        <time>2025-08-17T00:01:16.921Z</time>
      </trkpt>
      <trkpt lat="52.022511" lon="8.887196">
        <ele>96.424357</ele>
        <time>2025-08-17T00:01:20.578Z</time>
      </trkpt>
      <trkpt lat="52.022511" lon="8.887373">
        <ele>96.445051</ele>
        <time>2025-08-17T00:01:23.267Z</time>
      </trkpt>
      <trkpt lat="52.022494" lon="8.887400">
        <ele>96.449567</ele>
        <time>2025-08-17T00:01:23.880Z</time>
      </trkpt>
      <trkpt lat="52.022481" lon="8.887432">
        <ele>96.454050</ele>
        <time>2025-08-17T00:01:24.472Z</time>
      </trkpt>
      <trkpt lat="52.022472" lon="8.887468">
        <ele>96.458593</ele>
        <time>2025-08-17T00:01:25.041Z</time>
      </trkpt>
      <trkpt lat="52.022469" lon="8.887495">
        <ele>96.461801</ele>
        <time>2025-08-17T00:01:25.442Z</time>
      </trkpt>
      <trkpt lat="52.022477" lon="8.887608">
        <ele>96.475100</ele>
        <time>2025-08-17T00:01:27.192Z</time>
      </trkpt>
      <trkpt lat="52.022492" lon="8.887651">
        <ele>96.480879</ele>
        <time>2025-08-17T00:01:27.964Z</time>
      </trkpt>
      <trkpt lat="52.022516" lon="8.887689">
        <ele>96.487245</ele>
        <time>2025-08-17T00:01:28.758Z</time>
      </trkpt>
      <trkpt lat="52.022545" lon="8.887715">
        <ele>96.493538</ele>
        <time>2025-08-17T00:01:29.539Z</time>
      </trkpt>
      <trkpt lat="52.022595" lon="8.887902">
        <ele>96.517375</ele>
        <time>2025-08-17T00:01:32.673Z</time>
      </trkpt>
      <trkpt lat="52.022645" lon="8.888109">
        <ele>96.543374</ele>
        <time>2025-08-17T00:01:36.054Z</time>
      </trkpt>
      <trkpt lat="52.022689" lon="8.888554">
        <ele>96.696784</ele>
        <time>2025-08-17T00:01:43.063Z</time>
      </trkpt>
      <trkpt lat="52.022703" lon="8.888711">
        <ele>96.803346</ele>
        <time>2025-08-17T00:01:45.608Z</time>
      </trkpt>
      <trkpt lat="52.022842" lon="8.889981">
        <ele>97.669819</ele>
        <time>2025-08-17T00:02:07.803Z</time>
      </trkpt>
      <trkpt lat="52.022920" lon="8.890718">
        <ele>98.172144</ele>
        <time>2025-08-17T00:02:19.781Z</time>
      </trkpt>
      <trkpt lat="52.023006" lon="8.891521">
        <ele>98.610498</ele>
        <time>2025-08-17T00:02:33.380Z</time>
      </trkpt>
      <trkpt lat="52.023074" lon="8.892164">
        <ele>98.785038</ele>
        <time>2025-08-17T00:02:43.289Z</time>
      </trkpt>
      <trkpt lat="52.023110" lon="8.892529">
        <ele>98.883930</ele>
        <time>2025-08-17T00:02:48.437Z</time>
      </trkpt>
      <trkpt lat="52.023131" lon="8.892784">
        <ele>98.952757</ele>
        <time>2025-08-17T00:02:51.907Z</time>
      </trkpt>
      <trkpt lat="52.023159" lon="8.893269">
        <ele>99.083075</ele>
        <time>2025-08-17T00:02:58.580Z</time>
      </trkpt>
      <trkpt lat="52.023164" lon="8.893450">
        <ele>99.131545</ele>
        <time>2025-08-17T00:03:01.173Z</time>
      </trkpt>
      <trkpt lat="52.023171" lon="8.893721">
        <ele>99.204108</ele>
        <time>2025-08-17T00:03:05.246Z</time>
      </trkpt>
      <trkpt lat="52.023174" lon="8.893902">
        <ele>99.252547</ele>
        <time>2025-08-17T00:03:07.946Z</time>
      </trkpt>
      <trkpt lat="52.023177" lon="8.894091">
        <ele>99.303125</ele>
        <time>2025-08-17T00:03:10.903Z</time>
      </trkpt>
      <trkpt lat="52.023173" lon="8.894671">
        <ele>99.398207</ele>
        <time>2025-08-17T00:03:19.258Z</time>
      </trkpt>
      <trkpt lat="52.023171" lon="8.894890">
        <ele>99.431299</ele>
        <time>2025-08-17T00:03:22.259Z</time>
      </trkpt>
      <trkpt lat="52.023170" lon="8.895023">
        <ele>99.451396</ele>
        <time>2025-08-17T00:03:24.140Z</time>
      </trkpt>
      <trkpt lat="52.023167" lon="8.895289">
        <ele>99.491593</ele>
        <time>2025-08-17T00:03:27.984Z</time>
      </trkpt>
      <trkpt lat="52.023163" lon="8.895700">
        <ele>99.553699</ele>
        <time>2025-08-17T00:03:33.978Z</time>
      </trkpt>
      <trkpt lat="52.023158" lon="8.895991">
        <ele>99.597684</ele>
        <time>2025-08-17T00:03:38.274Z</time>
      </trkpt>
      <trkpt lat="52.023155" lon="8.896211">
        <ele>99.630932</ele>
        <time>2025-08-17T00:03:41.442Z</time>
      </trkpt>
      <trkpt lat="52.023147" lon="8.896628">
        <ele>99.693968</ele>
        <time>2025-08-17T00:03:47.534Z</time>
      </trkpt>
      <trkpt lat="52.023164" lon="8.897184">
        <ele>99.745054</ele>
        <time>2025-08-17T00:03:55.553Z</time>
      </trkpt>
      <trkpt lat="52.023196" lon="8.897471">
        <ele>99.699356</ele>
        <time>2025-08-17T00:03:59.563Z</time>
      </trkpt>
      <trkpt lat="52.023275" lon="8.897930">
        <ele>99.624681</ele>
        <time>2025-08-17T00:04:05.594Z</time>
      </trkpt>
      <trkpt lat="52.023442" lon="8.898660">
        <ele>99.502660</ele>
        <time>2025-08-17T00:04:15.029Z</time>
      </trkpt>
      <trkpt lat="52.023472" lon="8.898791">
        <ele>99.480760</ele>
        <time>2025-08-17T00:04:16.803Z</time>
      </trkpt>
      <trkpt lat="52.023474" lon="8.898910">
        <ele>99.462109</ele>
        <time>2025-08-17T00:04:18.368Z</time>
      </trkpt>
      <trkpt lat="52.023525" lon="8.899002">
        <ele>99.442708</ele>
        <time>2025-08-17T00:04:19.947Z</time>
      </trkpt>
      <trkpt lat="52.023556" lon="8.899139">
        <ele>99.419839</ele>
        <time>2025-08-17T00:04:21.891Z</time>
      </trkpt>
      <trkpt lat="52.023592" lon="8.899302">
        <ele>99.392706</ele>
        <time>2025-08-17T00:04:24.184Z</time>
      </trkpt>
      <trkpt lat="52.023588" lon="8.899390">
        <ele>99.378881</ele>
        <time>2025-08-17T00:04:25.403Z</time>
      </trkpt>
      <trkpt lat="52.023674" lon="8.899411">
        <ele>99.356738</ele>
        <time>2025-08-17T00:04:27.399Z</time>
      </trkpt>
      <trkpt lat="52.023849" lon="8.899407">
        <ele>99.312176</ele>
        <time>2025-08-17T00:04:31.619Z</time>
      </trkpt>
      <trkpt lat="52.024068" lon="8.899374">
        <ele>99.271335</ele>
        <time>2025-08-17T00:04:36.652Z</time>
      </trkpt>
      <trkpt lat="52.024100" lon="8.899368">
        <ele>99.265738</ele>
        <time>2025-08-17T00:04:37.386Z</time>
      </trkpt>
      <trkpt lat="52.024077" lon="8.899614">
        <ele>99.239136</ele>
        <time>2025-08-17T00:04:40.764Z</time>
      </trkpt>
      <trkpt lat="52.023986" lon="8.901106">
        <ele>99.078845</ele>
        <time>2025-08-17T00:05:00.633Z</time>
      </trkpt>
      <trkpt lat="52.023918" lon="8.901989">
        <ele>98.975728</ele>
        <time>2025-08-17T00:05:12.330Z</time>
      </trkpt>
      <trkpt lat="52.023946" lon="8.903493">
        <ele>98.648024</ele>
        <time>2025-08-17T00:05:31.320Z</time>
      </trkpt>
      <trkpt lat="52.023892" lon="8.904000">
        <ele>98.535963</ele>
        <time>2025-08-17T00:05:37.946Z</time>
      </trkpt>
      <trkpt lat="52.023872" lon="8.904100">
        <ele>98.513063</ele>
        <time>2025-08-17T00:05:39.317Z</time>
      </trkpt>
      <trkpt lat="52.023851" lon="8.904259">
        <ele>98.477646</ele>
        <time>2025-08-17T00:05:41.482Z</time>
      </trkpt>
      <trkpt lat="52.023846" lon="8.904631">
        <ele>98.396609</ele>
        <time>2025-08-17T00:05:46.441Z</time>
      </trkpt>
      <trkpt lat="52.023984" lon="8.905573">
        <ele>98.173467</ele>
        <time>2025-08-17T00:05:59.267Z</time>
      </trkpt>
      <trkpt lat="52.024136" lon="8.906030">
        <ele>98.052131</ele>
        <time>2025-08-17T00:06:05.862Z</time>
      </trkpt>
      <trkpt lat="52.024340" lon="8.906308">
        <ele>97.951075</ele>
        <time>2025-08-17T00:06:11.221Z</time>
      </trkpt>
      <trkpt lat="52.024396" lon="8.906385">
        <ele>97.923231</ele>
        <time>2025-08-17T00:06:12.761Z</time>
      </trkpt>
      <trkpt lat="52.025135" lon="8.907017">
        <ele>97.776890</ele>
        <time>2025-08-17T00:06:30.055Z</time>
      </trkpt>
      <trkpt lat="52.025188" lon="8.907045">
        <ele>97.810587</ele>
        <time>2025-08-17T00:06:31.629Z</time>
      </trkpt>
      <trkpt lat="52.025203" lon="8.907453">
        <ele>97.962655</ele>
        <time>2025-08-17T00:06:37.421Z</time>
      </trkpt>
      <trkpt lat="52.025251" lon="8.907874">
        <ele>98.121954</ele>
        <time>2025-08-17T00:06:43.839Z</time>
      </trkpt>
      <trkpt lat="52.025279" lon="8.908095">
        <ele>98.205902</ele>
        <time>2025-08-17T00:06:47.436Z</time>
      </trkpt>
      <trkpt lat="52.025285" lon="8.908142">
        <ele>98.223761</ele>
        <time>2025-08-17T00:06:48.232Z</time>
      </trkpt>
      <trkpt lat="52.025326" lon="8.908456">
        <ele>98.343186</ele>
        <time>2025-08-17T00:06:53.559Z</time>
      </trkpt>
      <trkpt lat="52.025464" lon="8.909405">
        <ele>98.705986</ele>
        <time>2025-08-17T00:07:09.761Z</time>
      </trkpt>
      <trkpt lat="52.025537" lon="8.909906">
        <ele>99.070180</ele>
        <time>2025-08-17T00:07:18.389Z</time>
      </trkpt>
      <trkpt lat="52.025789" lon="8.910919">
        <ele>99.985544</ele>
        <time>2025-08-17T00:07:37.297Z</time>
      </trkpt>
      <trkpt lat="52.025797" lon="8.910952">
        <ele>100.015258</ele>
        <time>2025-08-17T00:07:37.899Z</time>
      </trkpt>
      <trkpt lat="52.025817" lon="8.911032">
        <ele>100.087598</ele>
        <time>2025-08-17T00:07:39.387Z</time>
      </trkpt>
      <trkpt lat="52.025889" lon="8.911328">
        <ele>100.354241</ele>
        <time>2025-08-17T00:07:44.826Z</time>
      </trkpt>
      <trkpt lat="52.025943" lon="8.911532">
        <ele>100.540283</ele>
        <time>2025-08-17T00:07:48.589Z</time>
      </trkpt>
      <trkpt lat="52.025984" lon="8.911688">
        <ele>100.682393</ele>
        <time>2025-08-17T00:07:51.462Z</time>
      </trkpt>
      <trkpt lat="52.026014" lon="8.911806">
        <ele>100.789351</ele>
        <time>2025-08-17T00:07:53.612Z</time>
      </trkpt>
      <trkpt lat="52.026055" lon="8.911980">
        <ele>100.945440</ele>
        <time>2025-08-17T00:07:56.763Z</time>
      </trkpt>
      <trkpt lat="52.026083" lon="8.912097">
        <ele>101.050608</ele>
        <time>2025-08-17T00:07:58.898Z</time>
      </trkpt>
      <trkpt lat="52.026159" lon="8.912418">
        <ele>101.319745</ele>
        <time>2025-08-17T00:08:04.727Z</time>
      </trkpt>
      <trkpt lat="52.026204" lon="8.912584">
        <ele>101.449549</ele>
        <time>2025-08-17T00:08:07.825Z</time>
      </trkpt>
      <trkpt lat="52.026239" lon="8.912745">
        <ele>101.571736</ele>
        <time>2025-08-17T00:08:10.720Z</time>
      </trkpt>
      <trkpt lat="52.026288" lon="8.913190">
        <ele>101.895228</ele>
        <time>2025-08-17T00:08:18.436Z</time>
      </trkpt>
      <trkpt lat="52.026284" lon="8.913298">
        <ele>101.972651</ele>
        <time>2025-08-17T00:08:20.274Z</time>
      </trkpt>
      <trkpt lat="52.026139" lon="8.914710">
        <ele>102.997026</ele>
        <time>2025-08-17T00:08:43.742Z</time>
      </trkpt>
      <trkpt lat="52.026117" lon="8.915362">
        <ele>103.300243</ele>
        <time>2025-08-17T00:08:54.492Z</time>
      </trkpt>
      <trkpt lat="52.026119" lon="8.915761">
        <ele>103.300243</ele>
        <time>2025-08-17T00:09:00.722Z</time>
      </trkpt>
      <trkpt lat="52.026141" lon="8.916139">
        <ele>103.300243</ele>
        <time>2025-08-17T00:09:06.516Z</time>
      </trkpt>
      <trkpt lat="52.026167" lon="8.916379">
        <ele>103.300243</ele>
        <time>2025-08-17T00:09:10.134Z</time>
      </trkpt>
      <trkpt lat="52.026186" lon="8.916378">
        <ele>103.300243</ele>
        <time>2025-08-17T00:09:10.550Z</time>
      </trkpt>
      <trkpt lat="52.027605" lon="8.916333">
        <ele>103.300243</ele>
        <time>2025-08-17T00:09:43.446Z</time>
      </trkpt>
      <trkpt lat="52.027963" lon="8.916321">
        <ele>103.300243</ele>
        <time>2025-08-17T00:09:51.260Z</time>
      </trkpt>
    </trkseg>
  </trk>
</gpx>